Eltham High School

Historical Weather Data

                  Temp     Hi    Low   Out         Wind        Wind    Hi    Hi   Wind   Heat          THSW                Rain  Solar   Solar Hi Solar         UV    Hi     Heat    Cool    In     In          Wind  Wind    ISS   Arc.
  Date    Time     Out   Temp   Temp   Hum    Dew Speed   Dir   Run Speed   Dir  Chill  Index    THW  Index   Bar    Rain  Rate   Rad.  Energy    Rad.    UV   Dose   UV     D-D     D-D    Temp   Hum     ET   Samp   Tx   Recept  Int.
------------------------------------------------------------------------------------------------------------------------------------------------------------------------------------------------------------------------------------------
23/09/22 12:30a   13.6   13.7   13.6    92   12.3   0.0   ---  0.00   0.0   ---   13.6   13.6   13.6   12.2  1029.2  0.00   0.0     0     0.00      0     0.0  0.00   0.0   0.100   0.000   25.9    40    0.00   597    1     87.3   30 
23/09/22  1:00a   13.5   13.6   13.5    92   12.2   0.0   ---  0.00   0.0   ---   13.5   13.6   13.6   12.1  1029.0  0.00   0.0     0     0.00      0     0.0  0.00   0.0   0.101   0.000   25.9    40    0.00   601    1     87.9   30 
23/09/22  1:30a   13.4   13.5   13.4    92   12.1   0.0   ---  0.00   0.0   ---   13.4   13.4   13.4   12.0  1028.7  0.00   0.0     0     0.00      0     0.0  0.00   0.0   0.103   0.000   25.8    40    0.00   586    1     85.7   30 
23/09/22  2:00a   13.3   13.4   13.3    92   12.1   0.0   ---  0.00   0.0   ---   13.3   13.4   13.4   11.9  1028.5  0.00   0.0     0     0.00      0     0.0  0.00   0.0   0.104   0.000   25.7    40    0.00   594    1     86.8   30 
23/09/22  2:30a   13.3   13.4   13.3    92   12.1   0.0   ---  0.00   0.0   ---   13.3   13.4   13.4   11.9  1028.3  0.00   0.0     0     0.00      0     0.0  0.00   0.0   0.104   0.000   25.6    40    0.00   601    1     87.9   30 
23/09/22  3:00a   13.4   13.4   13.3    93   12.3   0.0   ---  0.00   0.0   ---   13.4   13.5   13.5   12.1  1028.4  0.00   0.0     0     0.00      0     0.0  0.00   0.0   0.103   0.000   25.6    40    0.00   596    1     87.1   30 
23/09/22  3:30a   13.4   13.4   13.3    93   12.3   0.0   ---  0.00   0.0   ---   13.4   13.6   13.6   12.1  1028.3  0.00   0.0     0     0.00      0     0.0  0.00   0.0   0.102   0.000   25.6    40    0.00   598    1     87.4   30 
23/09/22  4:00a   13.4   13.4   13.4    93   12.3   0.0   ---  0.00   0.0   ---   13.4   13.5   13.5   12.1  1028.4  0.00   0.0     0     0.00      0     0.0  0.00   0.0   0.103   0.000   25.5    40    0.00   600    1     87.7   30 
23/09/22  4:30a   13.3   13.4   13.3    93   12.2   0.0   ---  0.00   0.0   ---   13.3   13.4   13.4   11.9  1028.2  0.00   0.0     0     0.00      0     0.0  0.00   0.0   0.105   0.000   25.5    41    0.00   595    1     87.0   30 
23/09/22  5:00a   13.2   13.3   13.2    92   12.0   0.0   ---  0.00   0.0   ---   13.2   13.3   13.3   11.8  1028.3  0.00   0.0     0     0.00      0     0.0  0.00   0.0   0.106   0.000   25.4    41    0.00   606    1     88.6   30 
23/09/22  5:30a   13.2   13.3   13.2    92   12.0   0.0   ---  0.00   0.0   ---   13.2   13.3   13.3   11.8  1028.5  0.00   0.0     0     0.00      0     0.0  0.00   0.0   0.106   0.000   25.4    41    0.00   600    1     87.7   30 
23/09/22  6:00a   13.2   13.3   13.2    92   12.0   0.0   ---  0.00   0.0   ---   13.2   13.3   13.3   11.8  1028.8  0.00   0.0     0     0.00      0     0.0  0.00   0.0   0.106   0.000   25.3    41    0.00   596    1     87.1   30 
23/09/22  6:30a   13.2   13.2   13.2    92   12.0   0.0   ---  0.00   0.0   ---   13.2   13.3   13.3   11.8  1029.0  0.00   0.0     0     0.00      0     0.0  0.00   0.0   0.106   0.000   25.3    41    0.00   597    1     87.3   30 
23/09/22  7:00a   13.3   13.3   13.2    92   12.0   0.0   ---  0.00   0.0   ---   13.3   13.3   13.3   12.0  1029.3  0.00   0.0    11     0.47     16     0.0  0.00   0.0   0.105   0.000   25.2    41    0.00   605    1     88.5   30 
23/09/22  7:30a   13.3   13.3   13.2    92   12.1   0.0   ---  0.00   0.0   ---   13.3   13.4   13.4   12.1  1029.5  0.00   0.0    15     0.65     21     0.0  0.00   0.0   0.104   0.000   25.2    41    0.00   608    1     88.9   30 
23/09/22  8:00a   13.6   13.6   13.3    92   12.3   0.0   ---  0.00   0.0   ---   13.6   13.6   13.6   14.2  1029.8  0.00   0.0    62     2.67    105     0.0  0.00   0.0   0.100   0.000   25.4    41    0.03   610    1     89.2   30 
23/09/22  8:30a   13.9   13.9   13.6    90   12.3   0.0   ---  0.00   0.0   ---   13.9   14.0   14.0   15.5  1029.9  0.00   0.0   114     4.90    137     0.0  0.00   0.0   0.091   0.000   25.6    41    0.00   595    1     87.0   30 
23/09/22  9:00a   14.7   14.7   13.9    88   12.8   0.0   ---  0.00   0.0   ---   14.7   14.8   14.8   17.9  1029.5  0.00   0.0   216     9.29    636     0.5  0.11   1.6   0.075   0.000   25.9    41    0.08   536    1     78.4   30 
23/09/22  9:30a   15.7   15.7   14.7    82   12.6   0.0   ---  0.00   0.0   ---   15.7   15.7   15.7   19.8  1029.4  0.00   0.0   303    13.03    631     1.1  0.24   1.6   0.056   0.000   26.2    41    0.00   589    1     86.1   30 
23/09/22 10:00a   16.1   16.1   15.6    80   12.7   0.0   ---  0.00   0.0   ---   16.1   16.1   16.1   19.7  1029.3  0.00   0.0   286    12.30    397     1.5  0.32   2.0   0.046   0.000   26.5    40    0.15   598    1     87.4   30 
23/09/22 10:30a   15.9   16.1   15.8    80   12.4   0.0   ---  0.00   0.0   ---   15.9   15.9   15.9   17.3  1029.3  0.00   0.0   149     6.41    213     0.8  0.17   1.1   0.051   0.000   26.8    40    0.00   595    1     87.0   30 
23/09/22 11:00a   15.6   15.9   15.6    81   12.4   0.0   ---  0.00   0.0   ---   15.6   15.6   15.6   16.2  1029.1  0.00   0.0   111     4.77    155     0.5  0.11   0.8   0.057   0.000   27.1    40    0.08   604    1     88.3   30 
23/09/22 11:30a   16.1   16.1   15.6    82   13.0   0.0   ---  0.00   0.0   ---   16.1   16.2   16.2   18.5  1028.8  0.00   0.0   228     9.81    529     1.3  0.28   2.5   0.046   0.000   27.3    40    0.00   615    1     89.9   30 
23/09/22 12:00p   16.9   17.0   16.1    77   12.9   0.0   ---  0.00   0.0   ---   16.9   16.9   16.9   21.0  1028.3  0.00   0.0   368    15.83    573     2.1  0.45   3.3   0.029   0.000   27.6    39    0.15   592    1     86.5   30 
23/09/22 12:30p   17.7   17.8   17.0    74   13.0   0.0   ---  0.00   0.0   ---   17.7   17.7   17.7   22.7  1027.9  0.00   0.0   464    19.95    842     2.8  0.60   4.1   0.013   0.000   27.8    39    0.00   582    1     85.1   30 
23/09/22  1:00p   17.2   17.9   17.2    74   12.5   0.0   ---  0.00   0.0   ---   17.2   17.2   17.2   18.2  1027.8  0.00   0.0   140     6.02    381     0.9  0.19   2.5   0.023   0.000   28.1    39    0.18   543    1     79.4   30 
23/09/22  1:30p   16.2   17.2   16.2    79   12.5   0.0   ---  0.00   0.0   ---   16.2   16.2   16.2   16.0  1027.8  0.00   0.0    58     2.49     97     0.0  0.00   0.5   0.045   0.000   28.2    39    0.00   584    1     85.4   30 
23/09/22  2:00p   15.7   16.2   15.7    81   12.4   0.0   ---  0.00   0.0   ---   15.7   15.7   15.7   15.5  1027.6  0.00   0.0    57     2.45     84     0.0  0.00   0.0   0.056   0.000   28.2    39    0.03   611    1     89.3   30 
23/09/22  2:30p   15.7   15.7   15.6    81   12.4   0.0   ---  0.00   0.0   ---   15.7   15.7   15.7   16.1  1027.6  0.00   0.0    86     3.70     97     0.0  0.00   0.0   0.056   0.000   28.1    39    0.00   597    1     87.3   30 
23/09/22  3:00p   15.4   15.7   15.4    82   12.3   0.0   ---  0.00   0.0   ---   15.4   15.4   15.4   16.3  1027.5  0.00   0.0   108     4.64    274     0.2  0.04   1.0   0.061   0.000   27.9    39    0.05   601    1     87.9   30 
23/09/22  3:30p   14.4   15.5   14.4    86   12.1   0.0   ---  0.00   0.0   ---   14.4   14.3   14.3   16.1  1027.7  0.00   0.0   145     6.24    294     0.4  0.09   1.0   0.082   0.000   27.8    39    0.00   581    1     84.9   30 
23/09/22  4:00p   13.7   14.4   13.7    88   11.8   0.0   ---  0.00   0.0   ---   13.7   13.7   13.7   13.9  1027.7  0.00   0.0    56     2.41     74     0.0  0.00   0.0   0.096   0.000   27.7    39    0.05   610    1     89.2   30 
23/09/22  4:30p   13.4   13.7   13.4    87   11.3   0.0   ---  0.00   0.0   ---   13.4   13.4   13.4   13.1  1028.2  0.00   0.0    33     1.42     47     0.0  0.00   0.0   0.103   0.000   27.4    39    0.00   606    1     88.6   30 
23/09/22  5:00p   13.4   13.4   13.4    87   11.3   0.0   ---  0.00   0.0   ---   13.4   13.4   13.4   12.8  1028.4  0.00   0.0    16     0.69     21     0.0  0.00   0.0   0.102   0.000   27.2    39    0.03   621    1     90.8   30 
23/09/22  5:30p   13.4   13.6   13.4    86   11.1   0.0   ---  0.00   0.0   ---   13.4   13.3   13.3   12.2  1028.9  0.00   0.0    14     0.60     21     0.0  0.00   0.0   0.103   0.000   27.0    39    0.00   622    1     90.9   30 
23/09/22  6:00p   13.2   13.4   13.2    84   10.6   0.0   ---  0.00   0.0   ---   13.2   13.2   13.2   12.0  1028.9  0.00   0.0    16     0.69     23     0.0  0.00   0.0   0.106   0.000   26.8    39    0.00   585    1     85.5   30 
23/09/22  6:30p   13.3   13.3   13.2    83   10.5   0.0   ---  0.00   0.0   ---   13.3   13.2   13.2   11.8  1028.8  0.00   0.0     0     0.00      0     0.0  0.00   0.0   0.105   0.000   26.6    40    0.00   608    1     88.9   30 
23/09/22  7:00p   12.9   13.3   12.9    84   10.3   0.0   ---  0.00   0.0   ---   12.9   12.9   12.9   11.5  1028.8  0.00   0.0     0     0.00      0     0.0  0.00   0.0   0.112   0.000   26.5    40    0.00   613    1     89.6   30 
23/09/22  7:30p   12.7   12.9   12.7    85   10.3   0.0   ---  0.00   0.0   ---   12.7   12.7   12.7   11.3  1029.3  0.00   0.0     0     0.00      0     0.0  0.00   0.0   0.117   0.000   26.3    40    0.00   608    1     88.9   30 
23/09/22  8:00p   12.7   12.7   12.7    86   10.4   0.0   ---  0.00   0.0   ---   12.7   12.7   12.7   11.3  1029.3  0.00   0.0     0     0.00      0     0.0  0.00   0.0   0.117   0.000   26.1    40    0.00   627    1     91.7   30 
23/09/22  8:30p   12.6   12.8   12.6    87   10.5   0.0   ---  0.00   0.0   ---   12.6   12.6   12.6   11.2  1029.4  0.00   0.0     0     0.00      0     0.0  0.00   0.0   0.119   0.000   26.0    40    0.00   620    1     90.6   30 
23/09/22  9:00p   12.6   12.6   12.6    88   10.7   0.0   ---  0.00   0.0   ---   12.6   12.6   12.6   11.2  1029.3  0.00   0.0     0     0.00      0     0.0  0.00   0.0   0.119   0.000   25.9    40    0.00   625    1     91.4   30 
23/09/22  9:30p   12.6   12.7   12.6    89   10.8   0.0   ---  0.00   0.0   ---   12.6   12.6   12.6   11.2  1029.2  0.00   0.0     0     0.00      0     0.0  0.00   0.0   0.120   0.000   25.8    40    0.00   625    1     91.4   30 
23/09/22 10:00p   12.2   12.6   12.2    89   10.5   0.0   ---  0.00   0.0   ---   12.2   12.3   12.3   10.9  1029.2  0.00   0.0     0     0.00      0     0.0  0.00   0.0   0.127   0.000   25.7    40    0.00   604    1     88.3   30 
23/09/22 10:30p   12.0   12.2   12.0    89   10.2   0.0   ---  0.00   0.0   ---   12.0   12.1   12.1   10.7  1029.3  0.00   0.0     0     0.00      0     0.0  0.00   0.0   0.132   0.000   25.6    40    0.00   601    1     87.9   30 
23/09/22 11:00p   12.0   12.1   11.9    86    9.7   0.0   ---  0.00   0.0   ---   12.0   11.9   11.9   10.6  1029.7  0.00   0.0     0     0.00      0     0.0  0.00   0.0   0.132   0.000   25.5    40    0.00   588    1     86.0   30 
23/09/22 11:30p   11.9   12.0   11.9    85    9.5   0.0   ---  0.00   0.0   ---   11.9   11.9   11.9   10.5  1029.7  0.00   0.0     0     0.00      0     0.0  0.00   0.0   0.133   0.000   25.4    40    0.00   637    1     93.1   30 
24/09/22 12:00a   11.4   12.0   11.4    89    9.6   0.0   ---  0.00   0.0   ---   11.4   11.4   11.4   10.1  1029.7  0.00   0.0     0     0.00      0     0.0  0.00   0.0   0.145   0.000   25.3    40    0.00   586    1     85.7   30 
24/09/22 12:30a   11.3   11.4   11.3    90    9.7   0.0   ---  0.00   0.0   ---   11.3   11.4   11.4   10.0  1029.6  0.00   0.0     0     0.00      0     0.0  0.00   0.0   0.147   0.000   25.2    40    0.00   577    1     84.4   30 
24/09/22  1:00a   11.2   11.3   11.2    90    9.6   0.0   ---  0.00   0.0   ---   11.2   11.3   11.3    9.9  1029.5  0.00   0.0     0     0.00      0     0.0  0.00   0.0   0.149   0.000   25.2    40    0.00   608    1     88.9   30 
24/09/22  1:30a   11.2   11.2   11.1    88    9.3   0.0   ---  0.00   0.0   ---   11.2   11.2   11.2    9.8  1029.4  0.00   0.0     0     0.00      0     0.0  0.00   0.0   0.149   0.000   25.1    40    0.00   618    1     90.4   30 
24/09/22  2:00a   11.2   11.2   11.2    86    9.0   0.0   ---  0.00   0.0   ---   11.2   11.2   11.2    9.8  1029.0  0.00   0.0     0     0.00      0     0.0  0.00   0.0   0.148   0.000   25.0    40    0.00   587    1     85.8   30 
24/09/22  2:30a   11.2   11.3   11.2    86    8.9   0.0   ---  0.00   0.0   ---   11.2   11.2   11.2    9.7  1028.7  0.00   0.0     0     0.00      0     0.0  0.00   0.0   0.149   0.000   24.9    40    0.00   575    1     84.1   30 
24/09/22  3:00a   11.1   11.2   11.1    85    8.7   0.0   ---  0.00   0.0   ---   11.1   11.1   11.1    9.7  1028.5  0.00   0.0     0     0.00      0     0.0  0.00   0.0   0.150   0.000   24.9    40    0.00   599    1     87.6   30 
24/09/22  3:30a   11.1   11.2   11.1    84    8.5   0.0   ---  0.00   0.0   ---   11.1   11.1   11.1    9.7  1028.4  0.00   0.0     0     0.00      0     0.0  0.00   0.0   0.150   0.000   24.8    40    0.00   600    1     87.7   30 
24/09/22  4:00a   11.0   11.1   11.0    83    8.2   0.0   ---  0.00   0.0   ---   11.0   10.9   10.9    9.4  1028.6  0.00   0.0     0     0.00      0     0.0  0.00   0.0   0.153   0.000   24.7    40    0.00   636    1     93.0   30 
24/09/22  4:30a   10.9   11.0   10.9    80    7.6   0.0   ---  0.00   0.0   ---   10.9   10.8   10.8    9.3  1028.7  0.00   0.0     0     0.00      0     0.0  0.00   0.0   0.154   0.000   24.7    40    0.00   634    1     92.7   30 
24/09/22  5:00a   10.3   10.9   10.3    81    7.2   0.0   ---  0.00   0.0   ---   10.3   10.3   10.3    8.8  1029.1  0.00   0.0     0     0.00      0     0.0  0.00   0.0   0.167   0.000   24.6    40    0.03   630    1     92.1   30 
24/09/22  5:30a    9.3   10.3    9.3    82    6.4   0.0   ---  0.00   0.0   ---    9.3    9.3    9.3    7.8  1029.4  0.00   0.0     0     0.00      0     0.0  0.00   0.0   0.188   0.000   24.5    40    0.00   616    1     90.1   30 
24/09/22  6:00a    9.4    9.4    9.0    83    6.7   0.0   ---  0.00   0.0   ---    9.4    9.4    9.4    7.9  1029.5  0.00   0.0     0     0.00      0     0.0  0.00   0.0   0.185   0.000   24.3    40    0.00   612    1     89.5   30 
24/09/22  6:30a    8.7    9.4    8.7    84    6.2   0.0   ---  0.00   0.0   ---    8.7    8.7    8.7    7.4  1029.6  0.00   0.0    15     0.65     39     0.0  0.00   0.0   0.200   0.000   24.2    40    0.00   619    1     90.5   30 
24/09/22  7:00a    9.8    9.8    8.7    86    7.5   0.0   ---  0.00   0.0   ---    9.8    9.8    9.8    9.3  1029.7  0.00   0.0    71     3.05    107     0.0  0.00   0.0   0.178   0.000   24.1    40    0.03   604    1     88.3   30 
24/09/22  7:30a   10.8   10.8    9.8    80    7.5   0.0   ---  0.00   0.0   ---   10.8   10.7   10.7   11.2  1029.5  0.00   0.0   153     6.58    223     0.0  0.00   0.0   0.157   0.000   24.0    40    0.00   591    1     86.4   30 
24/09/22  8:00a   12.2   12.2   10.8    72    7.3   0.0   ---  0.00   0.0   ---   12.2   11.9   11.9   16.8  1029.4  0.00   0.0   294    12.64    429     0.2  0.04   0.6   0.127   0.000   23.9    40    0.10   614    1     89.8   30 
24/09/22  8:30a   12.2   12.4   11.7    71    7.1   0.0   ---  0.00   0.0   ---   12.2   11.8   11.8   15.1  1029.6  0.00   0.0   215     9.25    543     0.4  0.09   1.0   0.127   0.000   23.9    39    0.00   566    1     82.7   30 
24/09/22  9:00a   12.0   12.9   12.0    71    6.9   0.0   ---  0.00   0.0   ---   12.0   11.6   11.6   14.8  1029.6  0.00   0.0   233    10.02    605     0.7  0.15   1.1   0.132   0.000   24.1    39    0.13   594    1     86.8   30 
24/09/22  9:30a   12.5   13.1   11.9    66    6.3   0.0   ---  0.00   0.0   ---   12.5   12.0   12.0   15.8  1029.6  0.00   0.0   296    12.73    819     1.3  0.28   2.0   0.122   0.000   24.2    39    0.00   604    1     88.3   30 
24/09/22 10:00a   12.7   13.1   12.3    64    6.0   0.0   ---  0.00   0.0   ---   12.7   12.1   12.1   15.4  1029.6  0.00   0.0   287    12.34    805     1.6  0.34   2.9   0.118   0.000   24.2    39    0.18   603    1     88.2   30 
24/09/22 10:30a   13.9   13.9   12.7    61    6.5   0.0   ---  0.00   0.0   ---   13.9   13.3   13.3   18.7  1029.3  0.00   0.0   604    25.98    891     2.6  0.56   3.4   0.091   0.000   24.3    38    0.00   589    1     86.1   30 
24/09/22 11:00a   13.6   14.0   13.2    58    5.4   0.0   ---  0.00   0.0   ---   13.6   12.8   12.8   16.4  1029.3  0.00   0.0   341    14.66    863     2.3  0.49   3.9   0.100   0.000   24.5    38    0.28   582    1     85.1   30 
24/09/22 11:30a   14.2   14.4   13.6    53    4.7   0.0   ---  0.00   0.0   ---   14.2   13.2   13.2   20.4  1029.2  0.00   0.0   854    36.73    939     3.9  0.84   4.2   0.087   0.000   24.6    38    0.00   576    1     84.2   30 
24/09/22 12:00p   14.6   14.6   14.2    54    5.3   0.0   ---  0.00   0.0   ---   14.6   13.6   13.6   19.3  1029.1  0.00   0.0   738    31.74    921     3.8  0.81   4.5   0.079   0.000   24.8    37    0.38   588    1     86.0   30 
24/09/22 12:30p   14.5   15.3   14.4    50    4.2   0.0   ---  0.00   0.0   ---   14.5   13.4   13.4   19.7  1028.8  0.00   0.0   807    34.71    969     4.0  0.86   4.5   0.080   0.000   25.0    37    0.00   561    1     82.0   30 
24/09/22  1:00p   15.2   15.2   14.4    53    5.6   0.0   ---  0.00   0.0   ---   15.2   14.2   14.2   21.7  1028.5  0.00   0.0   898    38.62   1016     3.6  0.77   4.4   0.066   0.000   25.1    36    0.38   552    1     80.7   30 
24/09/22  1:30p   14.7   15.2   13.9    55    5.7   0.0   ---  0.00   0.0   ---   14.7   13.8   13.8   19.2  1028.3  0.00   0.0   537    23.09    837     2.9  0.62   4.1   0.076   0.000   25.3    36    0.00   558    1     81.6   30 
24/09/22  2:00p   14.7   14.9   14.3    57    6.2   0.0   ---  0.00   0.0   ---   14.7   13.8   13.8   19.2  1028.2  0.00   0.0   625    26.88    828     2.9  0.62   3.6   0.076   0.000   25.4    36    0.30   593    1     86.7   30 
24/09/22  2:30p   14.8   14.9   14.2    53    5.3   0.0   ---  0.00   0.0   ---   14.8   13.8   13.8   19.2  1028.2  0.00   0.0   494    21.24    770     2.4  0.51   3.0   0.073   0.000   25.4    36    0.00   608    1     88.9   30 
24/09/22  3:00p   14.7   15.2   14.7    54    5.5   0.0   ---  0.00   0.0   ---   14.7   13.7   13.7   21.6  1028.3  0.00   0.0   688    29.59    800     2.2  0.47   2.7   0.076   0.000   25.5    35    0.30   637    1     93.1   30 
24/09/22  3:30p   14.7   14.8   14.6    55    5.7   0.0   ---  0.00   0.0   ---   14.7   13.8   13.8   20.3  1028.3  0.00   0.0   519    22.32    621     1.6  0.34   2.0   0.076   0.000   25.6    35    0.00   606    1     88.6   30 
24/09/22  4:00p   14.6   14.7   14.4    54    5.3   0.0   ---  0.00   0.0   ---   14.6   13.6   13.6   20.3  1028.2  0.00   0.0   463    19.91    520     1.2  0.26   1.4   0.079   0.000   25.7    35    0.23   562    1     82.2   30 
24/09/22  4:30p   14.0   14.6   14.0    57    5.6   0.0   ---  0.00   0.0   ---   14.0   13.2   13.2   18.3  1028.4  0.00   0.0   322    13.85    376     0.7  0.15   0.9   0.090   0.000   25.7    35    0.00   568    1     83.0   30 
24/09/22  5:00p   13.5   14.0   13.5    59    5.6   0.0   ---  0.00   0.0   ---   13.5   12.7   12.7   16.3  1028.7  0.00   0.0   223     9.59    267     0.0  0.00   0.5   0.101   0.000   25.6    35    0.15   613    1     89.6   30 
24/09/22  5:30p   12.8   13.5   12.8    58    4.7   0.0   ---  0.00   0.0   ---   12.8   12.0   12.0   11.1  1028.8  0.00   0.0    96     4.13    158     0.0  0.00   0.0   0.116   0.000   25.6    35    0.00   650    1     95.0   30 
24/09/22  6:00p   11.9   12.8   11.9    68    6.2   0.0   ---  0.00   0.0   ---   11.9   11.5   11.5    9.8  1028.8  0.00   0.0    25     1.08     33     0.0  0.00   0.0   0.133   0.000   25.4    35    0.03   666    1     97.4   30 
24/09/22  6:30p   11.2   11.9   11.2    72    6.4   0.0   ---  0.00   0.0   ---   11.2   10.9   10.9    9.1  1028.9  0.00   0.0     3     0.13     12     0.0  0.00   0.0   0.148   0.000   25.2    35    0.00   657    1     96.1   30 
24/09/22  7:00p   10.4   11.2   10.4    74    6.0   0.0   ---  0.00   0.0   ---   10.4   10.2   10.2    8.2  1029.2  0.00   0.0     0     0.00      0     0.0  0.00   0.0   0.166   0.000   25.0    35    0.00   621    1     90.8   30 
24/09/22  7:30p    9.2   10.4    9.2    78    5.6   0.0   ---  0.00   0.0   ---    9.2    9.1    9.1    7.1  1029.6  0.00   0.0     0     0.00      0     0.0  0.00   0.0   0.190   0.000   24.8    35    0.00   611    1     89.3   30 
24/09/22  8:00p    8.3    9.2    8.3    83    5.6   0.0   ---  0.00   0.0   ---    8.3    8.2    8.2    6.2  1029.7  0.00   0.0     0     0.00      0     0.0  0.00   0.0   0.209   0.000   24.6    36    0.03   612    1     89.5   30 
24/09/22  8:30p    7.8    8.3    7.8    85    5.5   0.0   ---  0.00   0.0   ---    7.8    7.8    7.8    5.8  1029.8  0.00   0.0     0     0.00      0     0.0  0.00   0.0   0.219   0.000   24.3    36    0.00   610    1     89.2   30 
24/09/22  9:00p    7.5    7.8    7.5    87    5.5   0.0   ---  0.00   0.0   ---    7.5    7.5    7.5    5.5  1030.0  0.00   0.0     0     0.00      0     0.0  0.00   0.0   0.226   0.000   24.3    36    0.00   567    1     82.9   30 
24/09/22  9:30p    7.1    7.5    7.0    89    5.4   0.0   ---  0.00   0.0   ---    7.1    7.1    7.1    5.1  1030.0  0.00   0.0     0     0.00      0     0.0  0.00   0.0   0.235   0.000   23.9    36    0.00   608    1     88.9   30 
24/09/22 10:00p    6.8    7.1    6.8    90    5.3   0.0   ---  0.00   0.0   ---    6.8    6.8    6.8    4.8  1030.0  0.00   0.0     0     0.00      0     0.0  0.00   0.0   0.241   0.000   23.7    36    0.00   591    1     86.4   30 
24/09/22 10:30p    6.4    6.8    6.4    90    4.9   0.0   ---  0.00   0.0   ---    6.4    6.5    6.5    4.5  1029.9  0.00   0.0     0     0.00      0     0.0  0.00   0.0   0.248   0.000   23.5    36    0.00   601    1     87.9   30 
24/09/22 11:00p    5.9    6.4    5.9    90    4.4   0.0   ---  0.00   0.0   ---    5.9    5.9    5.9    3.9  1030.0  0.00   0.0     0     0.00      0     0.0  0.00   0.0   0.258   0.000   23.4    36    0.00   596    1     87.1   30 
24/09/22 11:30p    5.6    5.9    5.6    91    4.3   0.0   ---  0.00   0.0   ---    5.6    5.6    5.6    3.6  1030.1  0.00   0.0     0     0.00      0     0.0  0.00   0.0   0.265   0.000   23.2    36    0.00   602    1     88.0   30 
25/09/22 12:00a    5.5    5.7    5.5    92    4.3   0.0   ---  0.00   0.0   ---    5.5    5.5    5.5    3.4  1030.2  0.00   0.0     0     0.00      0     0.0  0.00   0.0   0.267   0.000   23.1    36    0.00   588    1     86.0   30 
25/09/22 12:30a    5.1    5.5    5.1    92    3.9   0.0   ---  0.00   0.0   ---    5.1    5.1    5.1    3.1  1030.2  0.00   0.0     0     0.00      0     0.0  0.00   0.0   0.275   0.000   22.8    36    0.00   595    1     87.0   30 
25/09/22  1:00a    4.8    5.1    4.8    92    3.6   0.0   ---  0.00   0.0   ---    4.8    4.8    4.8    2.8  1030.3  0.00   0.0     0     0.00      0     0.0  0.00   0.0   0.281   0.000   22.8    36    0.00   602    1     88.0   30 
25/09/22  1:30a    4.8    4.9    4.8    93    3.8   0.0   ---  0.00   0.0   ---    4.8    4.8    4.8    2.8  1030.0  0.00   0.0     0     0.00      0     0.0  0.00   0.0   0.281   0.000   22.7    36    0.00   598    1     87.4   30 
25/09/22  2:00a    4.8    4.9    4.7    93    3.7   0.0   ---  0.00   0.0   ---    4.8    4.8    4.8    2.7  1029.7  0.00   0.0     0     0.00      0     0.0  0.00   0.0   0.282   0.000   22.6    36    0.00   580    1     84.8   30 
25/09/22  2:30a    4.3    4.8    4.3    93    3.2   0.0   ---  0.00   0.0   ---    4.3    4.3    4.3    2.2  1029.5  0.00   0.0     0     0.00      0     0.0  0.00   0.0   0.293   0.000   22.4    36    0.00   579    1     84.6   30 
25/09/22  3:00a    4.1    4.3    3.9    93    3.0   0.0   ---  0.00   0.0   ---    4.1    4.1    4.1    1.9  1029.4  0.00   0.0     0     0.00      0     0.0  0.00   0.0   0.297   0.000   22.3    36    0.00   588    1     86.0   30 
25/09/22  3:30a    4.2    4.2    4.1    94    3.3   0.0   ---  0.00   0.0   ---    4.2    4.2    4.2    2.2  1029.4  0.00   0.0     0     0.00      0     0.0  0.00   0.0   0.294   0.000   22.2    36    0.00   590    1     86.3   30 
25/09/22  4:00a    4.1    4.2    4.1    94    3.2   0.0   ---  0.00   0.0   ---    4.1    4.1    4.1    1.9  1029.3  0.00   0.0     0     0.00      0     0.0  0.00   0.0   0.297   0.000   22.2    36    0.00   595    1     87.0   30 
25/09/22  4:30a    3.3    4.1    3.3    93    2.3   0.0   ---  0.00   0.0   ---    3.3    3.3    3.3    1.2  1029.5  0.00   0.0     0     0.00      0     0.0  0.00   0.0   0.313   0.000   22.1    36    0.00   570    1     83.3   30 
25/09/22  5:00a    2.8    3.3    2.8    94    2.0   0.0   ---  0.00   0.0   ---    2.8    2.8    2.8    0.7  1029.7  0.00   0.0     0     0.00      0     0.0  0.00   0.0   0.323   0.000   21.9    36    0.00   571    1     83.5   30 
25/09/22  5:30a    2.3    2.8    2.3    94    1.4   0.0   ---  0.00   0.0   ---    2.3    2.3    2.3    0.1  1030.0  0.00   0.0     0     0.00      0     0.0  0.00   0.0   0.334   0.000   21.8    36    0.00   594    1     86.8   30 
25/09/22  6:00a    2.0    2.3    2.0    94    1.1   0.0   ---  0.00   0.0   ---    2.0    2.0    2.0   -0.2  1029.9  0.00   0.0     0     0.00      5     0.0  0.00   0.0   0.340   0.000   21.6    36    0.00   586    1     85.7   30 
25/09/22  6:30a    2.0    2.0    1.8    94    1.1   0.0   ---  0.00   0.0   ---    2.0    2.0    2.0    0.1  1030.1  0.00   0.0    18     0.77     39     0.0  0.00   0.0   0.340   0.000   21.5    36    0.00   632    1     92.4   30 
25/09/22  7:00a    3.2    3.2    2.0    95    2.5   0.0   ---  0.00   0.0   ---    3.2    3.2    3.2    2.0  1030.4  0.00   0.0    73     3.14    114     0.0  0.00   0.0   0.315   0.000   21.4    36    0.03   623    1     91.1   30 
25/09/22  7:30a    4.9    4.9    3.2    96    4.3   0.0   ---  0.00   0.0   ---    4.9    4.9    4.9    4.8  1030.6  0.00   0.0   162     6.97    207     0.0  0.00   0.0   0.280   0.000   21.3    36    0.00   614    1     89.8   30 
25/09/22  8:00a    7.0    7.0    4.9    96    6.4   0.0   ---  0.00   0.0   ---    7.0    7.1    7.1   10.9  1030.5  0.00   0.0   252    10.84    279     0.0  0.00   0.0   0.236   0.000   21.4    36    0.08   573    1     83.8   30 
25/09/22  8:30a    9.1    9.1    7.0    91    7.7   0.0   ---  0.00   0.0   ---    9.1    9.2    9.2   14.5  1030.8  0.00   0.0   358    15.40    427     0.7  0.15   0.9   0.193   0.000   21.5    36    0.00   553    1     80.8   30 
25/09/22  9:00a   11.3   11.3    9.1    78    7.6   0.0   ---  0.00   0.0   ---   11.3   11.1   11.1   17.1  1030.3  0.00   0.0   457    19.65    508     1.2  0.26   1.5   0.147   0.000   21.7    36    0.18   525    1     76.8   30 
25/09/22  9:30a   12.9   12.9   11.3    67    7.0   0.0   ---  0.00   0.0   ---   12.9   12.4   12.4   18.8  1030.2  0.00   0.0   554    23.83    599     1.8  0.39   2.0   0.112   0.000   22.0    35    0.00   583    1     85.2   30 
25/09/22 10:00a   14.1   14.1   12.9    59    6.2   0.0   ---  0.00   0.0   ---   14.1   13.3   13.3   19.1  1030.3  0.00   0.0   583    25.07    666     2.2  0.47   2.4   0.089   0.000   22.3    35    0.28   612    1     89.5   30 
25/09/22 10:30a   15.1   15.1   14.1    54    5.9   0.0   ---  0.00   0.0   ---   15.1   14.2   14.2   20.9  1030.1  0.00   0.0   720    30.96    777     3.0  0.64   3.3   0.067   0.000   22.7    35    0.00   573    1     83.8   30 
25/09/22 11:00a   15.5   15.5   15.1    51    5.4   0.0   ---  0.00   0.0   ---   15.5   14.4   14.4   20.3  1029.7  0.00   0.0   705    30.32    837     3.3  0.71   3.7   0.059   0.000   22.9    35    0.36   582    1     85.1   30 
25/09/22 11:30a   16.4   16.4   15.5    49    5.6   0.0   ---  0.00   0.0   ---   16.4   15.3   15.3   21.6  1029.5  0.00   0.0   777    33.42    805     3.8  0.81   4.1   0.041   0.000   23.2    34    0.00   588    1     86.0   30 
25/09/22 12:00p   16.6   16.7   16.0    50    6.1   0.0   ---  0.00   0.0   ---   16.6   15.5   15.5   21.7  1029.3  0.00   0.0   792    34.06    893     4.0  0.86   4.3   0.037   0.000   23.6    34    0.41   601    1     87.9   30 
25/09/22 12:30p   16.8   17.0   16.6    49    6.0   0.0   ---  0.00   0.0   ---   16.8   15.7   15.7   22.2  1028.8  0.00   0.0   825    35.48    872     4.3  0.92   4.4   0.032   0.000   23.9    34    0.00   599    1     87.6   30 
25/09/22  1:00p   16.9   17.3   16.8    49    6.1   0.0   ---  0.00   0.0   ---   16.9   15.8   15.8   21.4  1028.8  0.00   0.0   711    30.58    898     3.7  0.79   4.5   0.029   0.000   24.2    34    0.38   600    1     87.7   30 
25/09/22  1:30p   18.3   18.3   16.8    47    6.8   0.0   ---  0.00   0.0   ---   18.3   17.2   17.2   23.4  1028.9  0.00   0.0   745    32.04    958     3.7  0.79   4.3   0.001   0.000   24.4    34    0.00   627    1     91.7   30 
25/09/22  2:00p   17.8   18.3   17.4    49    7.0   0.0   ---  0.00   0.0   ---   17.8   16.8   16.8   21.3  1028.8  0.00   0.0   416    17.89    664     2.3  0.49   3.1   0.010   0.000   24.7    34    0.30   625    1     91.4   30 
25/09/22  2:30p   19.2   19.2   17.8    45    6.9   0.0   ---  0.00   0.0   ---   19.2   18.1   18.1   24.7  1028.5  0.00   0.0   674    28.99    766     3.0  0.64   3.3   0.000   0.017   24.9    34    0.00   644    1     94.2   30 
25/09/22  3:00p   18.6   19.2   17.8    46    6.8   0.0   ---  0.00   0.0   ---   18.6   17.5   17.5   22.9  1028.1  0.00   0.0   519    22.32    677     2.2  0.47   2.6   0.000   0.006   25.1    33    0.33   644    1     94.2   30 
25/09/22  3:30p   18.3   18.9   18.3    47    6.8   0.0   ---  0.00   0.0   ---   18.3   17.2   17.2   22.3  1027.9  0.00   0.0   436    18.75    573     1.6  0.34   2.1   0.001   0.000   25.2    33    0.00   645    1     94.3   30 
25/09/22  4:00p   18.2   18.8   18.2    51    7.9   0.0   ---  0.00   0.0   ---   18.2   17.3   17.3   22.6  1027.6  0.00   0.0   383    16.47    550     1.2  0.26   1.6   0.002   0.000   25.4    33    0.23   599    1     87.6   30 
25/09/22  4:30p   17.5   18.2   17.5    54    8.1   0.0   ---  0.00   0.0   ---   17.5   16.7   16.7   19.9  1027.7  0.00   0.0   213     9.16    410     0.6  0.13   1.0   0.017   0.000   25.5    33    0.00   563    1     82.3   30 
25/09/22  5:00p   17.7   17.7   17.4    55    8.5   0.0   ---  0.00   0.0   ---   17.7   16.9   16.9   20.4  1027.8  0.00   0.0   212     9.12    243     0.1  0.02   0.5   0.014   0.000   25.5    33    0.13   572    1     83.6   30 
25/09/22  5:30p   17.1   17.7   17.1    54    7.7   0.0   ---  0.00   0.0   ---   17.1   16.2   16.2   15.6  1028.1  0.00   0.0   105     4.52    185     0.0  0.00   0.0   0.027   0.000   25.5    33    0.00   614    1     89.8   30 
25/09/22  6:00p   16.4   17.1   16.4    56    7.6   0.0   ---  0.00   0.0   ---   16.4   15.6   15.6   14.0  1028.5  0.00   0.0    25     1.08     42     0.0  0.00   0.0   0.039   0.000   25.4    34    0.05   615    1     89.9   30 
25/09/22  6:30p   15.6   16.4   15.6    60    7.8   0.0   ---  0.00   0.0   ---   15.6   14.8   14.8   13.0  1028.9  0.00   0.0     3     0.13     14     0.0  0.00   0.0   0.058   0.000   25.3    34    0.00   622    1     90.9   30 
25/09/22  7:00p   14.5   15.6   14.5    64    7.8   0.0   ---  0.00   0.0   ---   14.5   13.9   13.9   12.0  1029.1  0.00   0.0     0     0.00      0     0.0  0.00   0.0   0.080   0.000   25.1    34    0.00   644    1     94.2   30 
25/09/22  7:30p   13.8   14.5   13.8    67    7.8   0.0   ---  0.00   0.0   ---   13.8   13.3   13.3   11.4  1029.4  0.00   0.0     0     0.00      0     0.0  0.00   0.0   0.095   0.000   24.9    34    0.00   618    1     90.4   30 
25/09/22  8:00p   13.1   13.8   13.1    71    7.9   0.0   ---  0.00   0.0   ---   13.1   12.7   12.7   10.8  1029.5  0.00   0.0     0     0.00      0     0.0  0.00   0.0   0.110   0.000   24.7    34    0.03   626    1     91.5   30 
25/09/22  8:30p   12.3   13.1   12.3    73    7.6   0.0   ---  0.00   0.0   ---   12.3   12.0   12.0   10.1  1029.7  0.00   0.0     0     0.00      0     0.0  0.00   0.0   0.125   0.000   24.5    35    0.00   619    1     90.5   30 
25/09/22  9:00p   11.6   12.3   11.6    75    7.3   0.0   ---  0.00   0.0   ---   11.6   11.3   11.3    9.4  1029.9  0.00   0.0     0     0.00      0     0.0  0.00   0.0   0.141   0.000   24.3    35    0.03   615    1     89.9   30 
25/09/22  9:30p   10.7   11.5   10.7    79    7.2   0.0   ---  0.00   0.0   ---   10.7   10.6   10.6    8.7  1030.0  0.00   0.0     0     0.00      0     0.0  0.00   0.0   0.159   0.000   24.1    35    0.00   633    1     92.5   30 
25/09/22 10:00p    9.8   10.7    9.8    83    7.0   0.0   ---  0.00   0.0   ---    9.8    9.8    9.8    7.8  1030.2  0.00   0.0     0     0.00      0     0.0  0.00   0.0   0.178   0.000   24.0    35    0.03   602    1     88.0   30 
25/09/22 10:30p    9.6    9.8    9.5    86    7.3   0.0   ---  0.00   0.0   ---    9.6    9.6    9.6    7.7  1030.3  0.00   0.0     0     0.00      0     0.0  0.00   0.0   0.183   0.000   23.8    35    0.00   611    1     89.3   30 
25/09/22 11:00p    9.2    9.6    9.2    86    7.0   0.0   ---  0.00   0.0   ---    9.2    9.3    9.3    7.3  1030.2  0.00   0.0     0     0.00      0     0.0  0.00   0.0   0.190   0.000   23.7    36    0.00   585    1     85.5   30 
25/09/22 11:30p    9.3    9.3    9.2    88    7.4   0.0   ---  0.00   0.0   ---    9.3    9.4    9.4    7.6  1030.1  0.00   0.0     0     0.00      0     0.0  0.00   0.0   0.188   0.000   23.6    36    0.00   611    1     89.3   30 
26/09/22 12:00a    9.3    9.3    9.3    88    7.4   0.0   ---  0.00   0.0   ---    9.3    9.4    9.4    7.5  1030.2  0.00   0.0     0     0.00      0     0.0  0.00   0.0   0.189   0.000   23.5    36    0.00   614    1     89.8   30 
26/09/22 12:30a    9.4    9.4    9.2    89    7.7   0.0   ---  0.00   0.0   ---    9.4    9.6    9.6    7.7  1030.3  0.00   0.0     0     0.00      0     0.0  0.00   0.0   0.186   0.000   23.4    36    0.00   618    1     90.4   30 
26/09/22  1:00a    9.5    9.5    9.3    89    7.8   0.0   ---  0.00   0.0   ---    9.5    9.7    9.7    7.8  1030.1  0.00   0.0     0     0.00      0     0.0  0.00   0.0   0.184   0.000   23.4    36    0.00   615    1     89.9   30 
26/09/22  1:30a    9.6    9.6    9.5    89    7.8   0.0   ---  0.00   0.0   ---    9.6    9.7    9.7    7.8  1029.6  0.00   0.0     0     0.00      0     0.0  0.00   0.0   0.183   0.000   23.3    36    0.00   617    1     90.2   30 
26/09/22  2:00a    9.6    9.7    9.6    89    7.9   0.0   ---  0.00   0.0   ---    9.6    9.8    9.8    7.9  1029.2  0.00   0.0     0     0.00      0     0.0  0.00   0.0   0.182   0.000   23.3    36    0.00   579    1     84.6   30 
26/09/22  2:30a    9.7    9.7    9.6    89    7.9   0.0   ---  0.00   0.0   ---    9.7    9.8    9.8    7.9  1028.8  0.00   0.0     0     0.00      0     0.0  0.00   0.0   0.181   0.000   23.2    36    0.00   609    1     89.0   30 
26/09/22  3:00a    9.8    9.8    9.7    90    8.2   0.0   ---  0.00   0.0   ---    9.8    9.9    9.9    8.1  1028.5  0.00   0.0     0     0.00      0     0.0  0.00   0.0   0.178   0.000   23.2    36    0.00   615    1     89.9   30 
26/09/22  3:30a    9.9    9.9    9.8    89    8.2   0.0   ---  0.00   0.0   ---    9.9   10.1   10.1    8.2  1028.4  0.00   0.0     0     0.00      0     0.0  0.00   0.0   0.175   0.000   23.2    36    0.00   636    1     93.0   30 
26/09/22  4:00a   10.1   10.1    9.9    89    8.3   0.0   ---  0.00   0.0   ---   10.1   10.2   10.2    8.3  1028.4  0.00   0.0     0     0.00      0     0.0  0.00   0.0   0.172   0.000   23.2    36    0.00   629    1     92.0   30 
26/09/22  4:30a    9.9   10.1    9.9    89    8.2   0.0   ---  0.00   0.0   ---    9.9   10.1   10.1    8.2  1028.7  0.00   0.0     0     0.00      0     0.0  0.00   0.0   0.175   0.000   23.1    36    0.00   628    1     91.8   30 
26/09/22  5:00a    9.6    9.9    9.6    89    7.9   0.0   ---  0.00   0.0   ---    9.6    9.8    9.8    7.9  1028.6  0.00   0.0     0     0.00      0     0.0  0.00   0.0   0.182   0.000   23.1    36    0.00   626    1     91.5   30 
26/09/22  5:30a    9.6    9.6    9.4    91    8.2   0.0   ---  0.00   0.0   ---    9.6    9.7    9.7    7.8  1028.6  0.00   0.0     0     0.00      0     0.0  0.00   0.0   0.183   0.000   23.1    36    0.00   632    1     92.4   30 
26/09/22  6:00a    9.7    9.7    9.6    91    8.3   0.0   ---  0.00   0.0   ---    9.7    9.8    9.8    7.9  1028.4  0.00   0.0     0     0.00      0     0.0  0.00   0.0   0.181   0.000   23.1    37    0.00   628    1     91.8   30 
26/09/22  6:30a    9.7    9.7    9.6    91    8.3   0.0   ---  0.00   0.0   ---    9.7    9.8    9.8    8.1  1029.0  0.00   0.0     9     0.39     14     0.0  0.00   0.0   0.181   0.000   23.1    37    0.00   625    1     91.4   30 
26/09/22  7:00a   10.2   10.2    9.7    92    8.9   0.0   ---  0.00   0.0   ---   10.2   10.3   10.3    8.7  1029.0  0.00   0.0    13     0.56     19     0.0  0.00   0.0   0.170   0.000   23.1    37    0.00   618    1     90.4   30 
26/09/22  7:30a   10.3   10.3   10.2    92    9.1   0.0   ---  0.00   0.0   ---   10.3   10.5   10.5    9.2  1029.0  0.00   0.0    40     1.72     60     0.0  0.00   0.0   0.167   0.000   23.1    37    0.00   635    1     92.8   30 
26/09/22  8:00a   11.3   11.3   10.3    91    9.9   0.0   ---  0.00   0.0   ---   11.3   11.4   11.4   13.8  1028.9  0.00   0.0   164     7.05    285     0.0  0.00   0.0   0.147   0.000   23.2    37    0.05   631    1     92.3   30 
26/09/22  8:30a   12.6   12.6   11.3    85   10.2   0.0   ---  0.00   0.0   ---   12.6   12.6   12.6   15.8  1028.7  0.00   0.0   207     8.90    278     0.4  0.09   0.8   0.119   0.000   23.5    37    0.00   600    1     87.7   30 
26/09/22  9:00a   13.6   13.6   12.7    79   10.0   0.0   ---  0.00   0.0   ---   13.6   13.4   13.4   15.6  1028.9  0.00   0.0   163     7.01    246     0.3  0.06   0.7   0.098   0.000   24.0    37    0.00   565    1     82.6   30 
26/09/22  9:30a   14.3   14.3   13.6    76   10.2   0.0   ---  0.00   0.0   ---   14.3   14.1   14.1   16.8  1028.8  0.00   0.0   213     9.16    279     0.9  0.19   1.1   0.083   0.000   24.4    36    0.10   533    1     77.9   30 
26/09/22 10:00a   15.2   15.2   14.3    70    9.7   0.0   ---  0.00   0.0   ---   15.2   14.8   14.8   18.7  1028.4  0.00   0.0   320    13.76    552     1.4  0.30   2.1   0.066   0.000   24.7    36    0.15   592    1     86.5   30 
26/09/22 10:30a   15.6   15.6   15.2    68    9.7   0.0   ---  0.00   0.0   ---   15.6   15.2   15.2   18.4  1028.1  0.00   0.0   285    12.26    364     1.4  0.30   1.8   0.058   0.000   25.1    36    0.00   581    1     84.9   30 
26/09/22 11:00a   15.2   15.6   15.2    68    9.4   0.0   ---  0.00   0.0   ---   15.2   14.8   14.8   17.3  1027.8  0.00   0.0   247    10.62    294     1.3  0.28   1.5   0.065   0.000   25.5    36    0.15   578    1     84.5   30 
26/09/22 11:30a   15.3   15.3   15.0    68    9.5   0.0   ---  0.00   0.0   ---   15.3   14.9   14.9   17.2  1027.4  0.00   0.0   233    10.02    315     1.3  0.28   1.8   0.063   0.000   25.8    36    0.00   591    1     86.4   30 
26/09/22 12:00p   15.4   15.6   15.3    67    9.3   0.0   ---  0.00   0.0   ---   15.4   14.9   14.9   17.2  1027.3  0.00   0.0   237    10.19    338     1.4  0.30   1.9   0.061   0.000   26.0    36    0.13   577    1     84.4   30 
26/09/22 12:30p   15.6   15.6   15.4    68    9.7   0.0   ---  0.00   0.0   ---   15.6   15.2   15.2   17.7  1026.9  0.00   0.0   255    10.97    329     1.6  0.34   2.0   0.058   0.000   26.3    35    0.00   552    1     80.7   30 
26/09/22  1:00p   15.4   15.8   15.4    67    9.3   0.0   ---  0.00   0.0   ---   15.4   15.0   15.0   17.3  1026.7  0.00   0.0   242    10.41    330     1.4  0.30   2.0   0.060   0.000   26.5    35    0.00   571    1     83.5   30 
26/09/22  1:30p   15.1   15.4   15.1    70    9.7   0.0   ---  0.00   0.0   ---   15.1   14.7   14.7   16.6  1026.5  0.00   0.0   198     8.52    221     1.2  0.26   1.3   0.067   0.000   26.7    35    0.13   601    1     87.9   30 
26/09/22  2:00p   15.3   15.3   14.9    71   10.1   0.0   ---  0.00   0.0   ---   15.3   15.0   15.0   18.2  1026.3  0.00   0.0   289    12.43    374     1.6  0.34   1.9   0.063   0.000   26.7    35    0.13   602    1     88.0   30 
26/09/22  2:30p   14.8   15.3   14.8    71    9.6   0.0   ---  0.00   0.0   ---   14.8   14.4   14.4   17.3  1026.2  0.00   0.0   250    10.75    313     1.3  0.28   1.6   0.073   0.000   26.8    35    0.00   519    1     75.9   30 
26/09/22  3:00p   13.7   14.8   13.7    77    9.7   0.0   ---  0.00   0.0   ---   13.7   13.4   13.4   14.2  1026.3  0.00   0.0   106     4.56    132     0.2  0.04   0.6   0.097   0.000   26.7    35    0.10   617    1     90.2   30 
26/09/22  3:30p   12.7   13.7   12.7    83    9.9   0.0   ---  0.00   0.0   ---   12.7   12.6   12.6   13.2  1026.2  0.25   0.0    88     3.78    104     0.0  0.00   0.0   0.117   0.000   26.6    35    0.00   642    1     93.9   30 
26/09/22  4:00p   12.3   12.7   12.3    86   10.1   0.0   ---  0.00   0.0   ---   12.3   12.3   12.3   13.2  1026.2  0.76   3.6    92     3.96    111     0.0  0.00   0.0   0.125   0.000   26.4    35    0.05   644    1     94.2   30 
26/09/22  4:30p   12.2   12.3   12.2    89   10.5   0.0   ---  0.00   0.0   ---   12.2   12.3   12.3   12.9  1026.4  0.76   2.3    72     3.10     88     0.0  0.00   0.0   0.127   0.000   26.2    36    0.00   677    1     99.0   30 
26/09/22  5:00p   11.8   12.2   11.8    90   10.2   0.0   ---  0.00   0.0   ---   11.8   11.9   11.9   12.4  1026.4  0.51   2.3    62     2.67     81     0.0  0.00   0.0   0.135   0.000   26.1    36    0.03   668    1     97.7   30 
26/09/22  5:30p   11.6   11.8   11.6    90   10.0   0.0   ---  0.00   0.0   ---   11.6   11.6   11.6   10.5  1026.6  0.25   1.0    33     1.42     58     0.0  0.00   0.0   0.141   0.000   25.9    36    0.00   657    1     96.1   30 
26/09/22  6:00p   11.4   11.6   11.4    91   10.0   0.0   ---  0.00   0.0   ---   11.4   11.6   11.6   10.2  1026.6  0.00   0.0    13     0.56     21     0.0  0.00   0.0   0.144   0.000   25.7    36    0.00   654    1     95.6   30 
26/09/22  6:30p   11.4   11.4   11.3    91   10.0   0.0   ---  0.00   0.0   ---   11.4   11.5   11.5    9.9  1026.8  0.00   0.0     0     0.00      0     0.0  0.00   0.0   0.145   0.000   25.6    37    0.00   645    1     94.3   30 
26/09/22  7:00p   11.2   11.4   11.2    92   10.0   0.0   ---  0.00   0.0   ---   11.2   11.3   11.3    9.8  1026.9  0.00   0.0     0     0.00      0     0.0  0.00   0.0   0.148   0.000   25.4    37    0.00   658    1     96.2   30 
26/09/22  7:30p   11.2   11.2   11.2    92    9.9   0.0   ---  0.00   0.0   ---   11.2   11.3   11.3    9.7  1026.9  0.00   0.0     0     0.00      0     0.0  0.00   0.0   0.149   0.000   25.3    37    0.00   645    1     94.3   30 
26/09/22  8:00p   11.2   11.2   11.1    91    9.8   0.0   ---  0.00   0.0   ---   11.2   11.3   11.3    9.7  1026.9  0.00   0.0     0     0.00      0     0.0  0.00   0.0   0.149   0.000   25.2    37    0.00   659    1     96.3   30 
26/09/22  8:30p   11.1   11.2   11.0    91    9.6   0.0   ---  0.00   0.0   ---   11.1   11.2   11.2    9.6  1027.0  0.00   0.0     0     0.00      0     0.0  0.00   0.0   0.152   0.000   25.0    38    0.00   654    1     95.6   30 
26/09/22  9:00p   11.2   11.2   11.1    90    9.6   0.0   ---  0.00   0.0   ---   11.2   11.3   11.3    9.7  1026.9  0.00   0.0     0     0.00      0     0.0  0.00   0.0   0.149   0.000   25.0    38    0.00   656    1     95.9   30 
26/09/22  9:30p   11.1   11.2   11.1    91    9.7   0.0   ---  0.00   0.0   ---   11.1   11.2   11.2    9.7  1027.0  0.00   0.0     0     0.00      0     0.0  0.00   0.0   0.150   0.000   24.9    38    0.00   657    1     96.1   30 
26/09/22 10:00p   11.1   11.2   11.1    92    9.8   0.0   ---  0.00   0.0   ---   11.1   11.2   11.2    9.6  1026.9  0.00   0.0     0     0.00      0     0.0  0.00   0.0   0.152   0.000   24.8    38    0.00   642    1     93.9   30 
26/09/22 10:30p   11.0   11.1   11.0    92    9.7   0.0   ---  0.00   0.0   ---   11.0   11.1   11.1    9.6  1026.6  0.00   0.0     0     0.00      0     0.0  0.00   0.0   0.153   0.000   24.7    38    0.00   642    1     93.9   30 
26/09/22 11:00p   10.9   11.1   10.9    92    9.7   0.0   ---  0.00   0.0   ---   10.9   11.1   11.1    9.6  1026.5  0.00   0.0     0     0.00      0     0.0  0.00   0.0   0.154   0.000   24.6    38    0.00   625    1     91.4   30 
26/09/22 11:30p   10.9   10.9   10.9    93    9.9   0.0   ---  0.00   0.0   ---   10.9   11.1   11.1    9.6  1026.3  0.00   0.0     0     0.00      0     0.0  0.00   0.0   0.154   0.000   24.6    38    0.00   608    1     88.9   30 
27/09/22 12:00a   11.0   11.0   10.9    93    9.9   0.0   ---  0.00   0.0   ---   11.0   11.2   11.2    9.6  1026.2  0.00   0.0     0     0.00      0     0.0  0.00   0.0   0.153   0.000   24.5    38    0.00   646    1     94.4   30 
27/09/22 12:30a   11.0   11.1   10.9    93    9.9   0.0   ---  0.00   0.0   ---   11.0   11.2   11.2    9.6  1026.1  0.00   0.0     0     0.00      0     0.0  0.00   0.0   0.153   0.000   24.4    38    0.00   626    1     91.5   30 
27/09/22  1:00a   11.0   11.0   10.9    93    9.9   0.0   ---  0.00   0.0   ---   11.0   11.2   11.2    9.6  1026.1  0.00   0.0     0     0.00      0     0.0  0.00   0.0   0.153   0.000   24.3    39    0.00   643    1     94.0   30 
27/09/22  1:30a   10.9   11.0   10.9    94   10.0   0.0   ---  0.00   0.0   ---   10.9   11.1   11.1    9.6  1025.7  0.00   0.0     0     0.00      0     0.0  0.00   0.0   0.154   0.000   24.3    39    0.00   651    1     95.2   30 
27/09/22  2:00a   10.8   10.9   10.8    94    9.9   0.0   ---  0.00   0.0   ---   10.8   11.0   11.0    9.4  1025.3  0.00   0.0     0     0.00      0     0.0  0.00   0.0   0.156   0.000   24.2    39    0.00   624    1     91.2   30 
27/09/22  2:30a   10.8   10.8   10.8    94    9.9   0.0   ---  0.00   0.0   ---   10.8   11.0   11.0    9.4  1025.1  0.00   0.0     0     0.00      0     0.0  0.00   0.0   0.156   0.000   24.2    39    0.00   627    1     91.7   30 
27/09/22  3:00a   10.8   10.8   10.8    94    9.9   0.0   ---  0.00   0.0   ---   10.8   11.0   11.0    9.4  1025.1  0.00   0.0     0     0.00      0     0.0  0.00   0.0   0.156   0.000   24.1    39    0.00   618    1     90.4   30 
27/09/22  3:30a   10.8   10.9   10.8    94    9.9   0.0   ---  0.00   0.0   ---   10.8   11.0   11.0    9.4  1025.1  0.00   0.0     0     0.00      0     0.0  0.00   0.0   0.156   0.000   24.1    39    0.00   618    1     90.4   30 
27/09/22  4:00a   10.8   10.8   10.8    94    9.9   0.0   ---  0.00   0.0   ---   10.8   11.0   11.0    9.4  1025.1  0.00   0.0     0     0.00      0     0.0  0.00   0.0   0.156   0.000   24.1    39    0.00   602    1     88.0   30 
27/09/22  4:30a   10.7   10.8   10.7    94    9.7   0.0   ---  0.00   0.0   ---   10.7   10.8   10.8    9.3  1025.0  0.00   0.0     0     0.00      0     0.0  0.00   0.0   0.160   0.000   24.0    39    0.00   610    1     89.2   30 
27/09/22  5:00a   10.7   10.7   10.6    94    9.7   0.0   ---  0.00   0.0   ---   10.7   10.8   10.8    9.3  1024.9  0.00   0.0     0     0.00      0     0.0  0.00   0.0   0.160   0.000   24.0    39    0.00   575    1     84.1   30 
27/09/22  5:30a   10.4   10.7   10.4    95    9.6   0.0   ---  0.00   0.0   ---   10.4   10.6   10.6    9.1  1025.0  0.00   0.0     0     0.00      0     0.0  0.00   0.0   0.166   0.000   23.9    39    0.00   643    1     94.0   30 
27/09/22  6:00a   10.4   10.4   10.3    95    9.6   0.0   ---  0.00   0.0   ---   10.4   10.6   10.6    9.1  1025.1  0.00   0.0     0     0.00      0     0.0  0.00   0.0   0.166   0.000   23.9    39    0.00   651    1     95.2   30 
27/09/22  6:30a   10.7   10.7   10.3    95    9.9   0.0   ---  0.00   0.0   ---   10.7   10.9   10.9    9.4  1025.3  0.00   0.0     7     0.30     11     0.0  0.00   0.0   0.160   0.000   23.8    39    0.00   652    1     95.3   30 
27/09/22  7:00a   10.9   10.9   10.6    95   10.2   0.0   ---  0.00   0.0   ---   10.9   11.1   11.1    9.9  1025.4  0.00   0.0    25     1.08     37     0.0  0.00   0.0   0.154   0.000   23.8    39    0.00   635    1     92.8   30 
27/09/22  7:30a   11.3   11.3   10.9    95   10.6   0.0   ---  0.00   0.0   ---   11.3   11.5   11.5   10.6  1025.6  0.00   0.0    40     1.72     53     0.0  0.00   0.0   0.146   0.000   23.8    40    0.00   623    1     91.1   30 
27/09/22  8:00a   11.7   11.7   11.3    95   10.9   0.0   ---  0.00   0.0   ---   11.7   11.9   11.9   13.7  1025.4  0.00   0.0   124     5.33    413     0.0  0.00   0.6   0.138   0.000   24.0    40    0.05   637    1     93.1   30 
27/09/22  8:30a   13.4   13.4   11.7    87   11.3   0.0   ---  0.00   0.0   ---   13.4   13.4   13.4   19.9  1025.3  0.00   0.0   416    17.89    538     0.8  0.17   1.0   0.103   0.000   24.3    40    0.00   590    1     86.3   30 
27/09/22  9:00a   13.8   13.8   13.4    85   11.3   0.0   ---  0.00   0.0   ---   13.8   13.7   13.7   16.8  1025.4  0.00   0.0   215     9.25    272     0.8  0.17   0.8   0.095   0.000   24.7    40    0.15   605    1     88.5   30 
27/09/22  9:30a   14.4   14.4   13.8    84   11.7   0.0   ---  0.00   0.0   ---   14.4   14.3   14.3   17.4  1025.2  0.00   0.0   231     9.93    302     0.8  0.17   1.1   0.082   0.000   25.1    39    0.00   575    1     84.1   30 
27/09/22 10:00a   15.1   15.1   14.4    80   11.6   0.0   ---  0.00   0.0   ---   15.1   14.9   14.9   18.3  1025.1  0.00   0.0   277    11.91    360     1.2  0.26   1.7   0.068   0.000   25.4    39    0.13   524    1     76.6   30 
27/09/22 10:30a   15.4   15.5   15.1    77   11.4   0.0   ---  0.00   0.0   ---   15.4   15.3   15.3   17.7  1025.1  0.00   0.0   226     9.72    383     1.1  0.24   1.3   0.060   0.000   25.7    39    0.00   529    1     77.3   30 
27/09/22 11:00a   15.2   15.4   15.2    77   11.2   0.0   ---  0.00   0.0   ---   15.2   14.9   14.9   15.1  1025.1  0.00   0.0    79     3.40    113     0.1  0.02   0.5   0.066   0.000   26.0    39    0.08   554    1     81.0   30 
27/09/22 11:30a   14.8   15.2   14.8    81   11.5   0.0   ---  0.00   0.0   ---   14.8   14.7   14.7   14.3  1025.2  0.25   0.0    53     2.28     79     0.0  0.00   0.0   0.074   0.000   26.2    38    0.00   594    1     86.8   30 
27/09/22 12:00p   14.3   14.8   14.3    86   12.0   0.0   ---  0.00   0.0   ---   14.3   14.3   14.3   14.4  1025.0  0.25   1.3    81     3.48    155     0.2  0.04   0.8   0.083   0.000   26.3    38    0.03   647    1     94.6   30 
27/09/22 12:30p   14.7   14.7   14.3    86   12.3   0.0   ---  0.00   0.0   ---   14.7   14.7   14.7   16.6  1024.8  0.25   0.0   205     8.82    297     1.1  0.24   1.6   0.076   0.000   26.5    38    0.00   622    1     90.9   30 
27/09/22  1:00p   14.3   14.8   14.3    89   12.5   0.0   ---  0.00   0.0   ---   14.3   14.4   14.4   16.1  1024.5  1.78   4.3   183     7.87    218     0.9  0.19   1.1   0.083   0.000   26.6    38    0.10   661    1     96.6   30 
27/09/22  1:30p   14.7   14.7   14.3    92   13.4   0.0   ---  0.00   0.0   ---   14.7   14.8   14.8   17.6  1024.2  0.51   4.8   258    11.10    633     1.6  0.34   3.5   0.076   0.000   26.8    38    0.00   640    1     93.6   30 
27/09/22  2:00p   15.3   15.3   14.5    86   13.0   0.0   ---  0.00   0.0   ---   15.3   15.4   15.4   20.9  1023.9  0.00   0.0   513    22.06    870     2.6  0.56   3.7   0.063   0.000   26.9    38    0.20   600    1     87.7   30 
27/09/22  2:30p   16.4   16.4   15.3    84   13.7   0.0   ---  0.00   0.0   ---   16.4   16.5   16.5   21.7  1023.7  0.00   0.0   436    18.75   1009     1.9  0.41   3.3   0.041   0.000   27.0    38    0.00   618    1     90.4   30 
27/09/22  3:00p   16.3   16.6   16.3    80   12.8   0.0   ---  0.00   0.0   ---   16.3   16.3   16.3   18.8  1023.5  0.00   0.0   202     8.69    371     0.9  0.19   1.3   0.043   0.000   27.1    38    0.18   541    1     79.1   30 
27/09/22  3:30p   16.3   16.4   16.2    82   13.3   0.0   ---  0.00   0.0   ---   16.3   16.4   16.4   18.4  1023.5  0.00   0.0   162     6.97    178     0.6  0.13   0.7   0.042   0.000   27.1    39    0.00   557    1     81.4   30 
27/09/22  4:00p   16.1   16.3   16.1    80   12.7   0.0   ---  0.00   0.0   ---   16.1   16.1   16.1   17.6  1023.4  0.00   0.0   121     5.20    142     0.0  0.00   0.5   0.046   0.000   27.0    39    0.08   564    1     82.5   30 
27/09/22  4:30p   14.9   16.1   14.9    86   12.6   0.0   ---  0.00   0.0   ---   14.9   14.9   14.9   15.8  1023.8  0.00   0.0    79     3.40    113     0.0  0.00   0.0   0.071   0.000   26.8    40    0.00   601    1     87.9   30 
27/09/22  5:00p   14.4   14.9   14.4    89   12.7   0.0   ---  0.00   0.0   ---   14.4   14.5   14.5   14.2  1024.1  0.00   0.0    29     1.25     44     0.0  0.00   0.0   0.081   0.000   26.7    40    0.03   609    1     89.0   30 
27/09/22  5:30p   13.8   14.4   13.8    92   12.6   0.0   ---  0.00   0.0   ---   13.8   13.9   13.9   12.8  1024.4  1.02   6.1    22     0.95     28     0.0  0.00   0.0   0.094   0.000   26.5    41    0.00   634    1     92.7   30 
27/09/22  6:00p   13.6   13.8   13.6    92   12.3   0.0   ---  0.00   0.0   ---   13.6   13.7   13.7   12.4  1024.9  0.00   0.0    10     0.43     19     0.0  0.00   0.0   0.098   0.000   26.3    41    0.00   622    1     90.9   30 
27/09/22  6:30p   13.4   13.6   13.4    93   12.3   0.0   ---  0.00   0.0   ---   13.4   13.6   13.6   12.2  1025.1  0.00   0.0     0     0.00      0     0.0  0.00   0.0   0.102   0.000   26.1    41    0.00   615    1     89.9   30 
27/09/22  7:00p   13.2   13.4   13.2    93   12.1   0.0   ---  0.00   0.0   ---   13.2   13.3   13.3   12.0  1025.5  0.00   0.0     0     0.00      0     0.0  0.00   0.0   0.106   0.000   26.0    41    0.00   647    1     94.6   30 
27/09/22  7:30p   13.3   13.3   13.2    92   12.0   0.0   ---  0.00   0.0   ---   13.3   13.3   13.3   12.0  1026.0  0.00   0.0     0     0.00      0     0.0  0.00   0.0   0.105   0.000   25.8    41    0.00   658    1     96.2   30 
27/09/22  8:00p   13.3   13.3   13.2    92   12.1   0.0   ---  0.00   0.0   ---   13.3   13.4   13.4   12.1  1026.4  0.00   0.0     0     0.00      0     0.0  0.00   0.0   0.104   0.000   25.7    41    0.00   654    1     95.6   30 
27/09/22  8:30p   13.3   13.4   13.3    92   12.0   0.0   ---  0.00   0.0   ---   13.3   13.3   13.3   12.0  1026.7  0.00   0.0     0     0.00      0     0.0  0.00   0.0   0.105   0.000   25.6    41    0.00   653    1     95.5   30 
27/09/22  9:00p   13.2   13.3   13.2    93   12.1   0.0   ---  0.00   0.0   ---   13.2   13.3   13.3   11.9  1026.9  0.51   2.8     0     0.00      0     0.0  0.00   0.0   0.108   0.000   25.5    41    0.00   657    1     96.1   30 
27/09/22  9:30p   13.0   13.2   13.0    94   12.1   0.0   ---  0.00   0.0   ---   13.0   13.1   13.1   11.8  1026.6  0.25   2.8     0     0.00      0     0.0  0.00   0.0   0.111   0.000   25.4    42    0.00   671    1     98.1   30 
27/09/22 10:00p   13.1   13.1   13.0    94   12.1   0.0   ---  0.00   0.0   ---   13.1   13.2   13.2   11.8  1026.8  0.00   0.0     0     0.00      0     0.0  0.00   0.0   0.110   0.000   25.3    42    0.00   653    1     95.5   30 
27/09/22 10:30p   13.1   13.1   13.1    94   12.2   0.0   ---  0.00   0.0   ---   13.1   13.2   13.2   11.9  1027.0  0.00   0.0     0     0.00      0     0.0  0.00   0.0   0.109   0.000   25.3    42    0.00   666    1     97.4   30 
27/09/22 11:00p   13.1   13.1   13.1    93   12.0   0.0   ---  0.00   0.0   ---   13.1   13.2   13.2   11.9  1027.1  0.00   0.0     0     0.00      0     0.0  0.00   0.0   0.109   0.000   25.2    42    0.00   643    1     94.0   30 
27/09/22 11:30p   13.2   13.2   13.1    93   12.1   0.0   ---  0.00   0.0   ---   13.2   13.3   13.3   11.9  1027.2  0.00   0.0     0     0.00      0     0.0  0.00   0.0   0.108   0.000   25.2    42    0.00   656    1     95.9   30 
28/09/22 12:00a   13.1   13.2   13.1    92   11.8   0.0   ---  0.00   0.0   ---   13.1   13.2   13.2   11.8  1027.3  0.00   0.0     0     0.00      0     0.0  0.00   0.0   0.109   0.000   25.1    42    0.00   653    1     95.5   30 
28/09/22 12:30a   13.1   13.2   13.1    92   11.8   0.0   ---  0.00   0.0   ---   13.1   13.2   13.2   11.8  1027.4  0.00   0.0     0     0.00      0     0.0  0.00   0.0   0.109   0.000   25.0    42    0.00   646    1     94.4   30 
28/09/22  1:00a   13.1   13.2   13.1    92   11.8   0.0   ---  0.00   0.0   ---   13.1   13.2   13.2   11.8  1027.6  0.00   0.0     0     0.00      0     0.0  0.00   0.0   0.109   0.000   25.0    42    0.00   663    1     96.9   30 
28/09/22  1:30a   13.1   13.2   13.1    92   11.8   0.0   ---  0.00   0.0   ---   13.1   13.2   13.2   11.8  1027.3  0.00   0.0     0     0.00      0     0.0  0.00   0.0   0.109   0.000   24.9    42    0.00   655    1     95.8   30 
28/09/22  2:00a   13.0   13.2   13.0    92   11.7   0.0   ---  0.00   0.0   ---   13.0   13.1   13.1   11.7  1027.3  0.00   0.0     0     0.00      0     0.0  0.00   0.0   0.111   0.000   24.9    42    0.00   643    1     94.0   30 
28/09/22  2:30a   13.0   13.1   13.0    92   11.7   0.0   ---  0.00   0.0   ---   13.0   13.1   13.1   11.7  1027.3  0.00   0.0     0     0.00      0     0.0  0.00   0.0   0.111   0.000   24.8    42    0.00   670    1     98.0   30 
28/09/22  3:00a   13.0   13.0   13.0    92   11.7   0.0   ---  0.00   0.0   ---   13.0   13.1   13.1   11.7  1027.4  0.00   0.0     0     0.00      0     0.0  0.00   0.0   0.111   0.000   24.8    42    0.00   656    1     95.9   30 
28/09/22  3:30a   13.1   13.1   13.0    92   11.8   0.0   ---  0.00   0.0   ---   13.1   13.1   13.1   11.8  1027.5  0.00   0.0     0     0.00      0     0.0  0.00   0.0   0.110   0.000   24.7    42    0.00   664    1     97.1   30 
28/09/22  4:00a   13.1   13.1   13.1    92   11.8   0.0   ---  0.00   0.0   ---   13.1   13.1   13.1   11.8  1027.7  0.00   0.0     0     0.00      0     0.0  0.00   0.0   0.110   0.000   24.7    42    0.00   659    1     96.3   30 
28/09/22  4:30a   12.8   13.1   12.8    93   11.7   0.0   ---  0.00   0.0   ---   12.8   12.9   12.9   11.6  1028.1  0.00   0.0     0     0.00      0     0.0  0.00   0.0   0.115   0.000   24.7    42    0.00   657    1     96.1   30 
28/09/22  5:00a   12.7   12.9   12.7    94   11.8   0.0   ---  0.00   0.0   ---   12.7   12.8   12.8   11.5  1028.4  0.25   0.0     0     0.00      0     0.0  0.00   0.0   0.117   0.000   24.6    43    0.00   655    1     95.8   30 
28/09/22  5:30a   12.6   12.7   12.6    95   11.8   0.0   ---  0.00   0.0   ---   12.6   12.7   12.7   11.4  1028.9  0.25   0.0     0     0.00      0     0.0  0.00   0.0   0.119   0.000   24.6    43    0.00   638    1     93.3   30 
28/09/22  6:00a   12.5   12.6   12.5    95   11.7   0.0   ---  0.00   0.0   ---   12.5   12.6   12.6   11.3  1029.4  0.76   2.8     0     0.00      0     0.0  0.00   0.0   0.122   0.000   24.6    43    0.00   660    1     96.5   30 
28/09/22  6:30a   12.4   12.6   12.4    96   11.8   0.0   ---  0.00   0.0   ---   12.4   12.5   12.5   11.2  1029.9  0.00   0.0     6     0.26     12     0.0  0.00   0.0   0.124   0.000   24.5    43    0.00   656    1     95.9   30 
28/09/22  7:00a   12.3   12.4   12.3    96   11.7   0.0   ---  0.00   0.0   ---   12.3   12.4   12.4   11.4  1030.1  0.51   1.3    27     1.16     56     0.0  0.00   0.0   0.126   0.000   24.5    43    0.00   671    1     98.1   30 
28/09/22  7:30a   12.3   12.3   12.2    95   11.6   0.0   ---  0.00   0.0   ---   12.3   12.4   12.4   13.2  1030.3  0.00   0.0    79     3.40    107     0.0  0.00   0.0   0.125   0.000   24.5    43    0.00   653    1     95.5   30 
28/09/22  8:00a   12.6   12.6   12.3    94   11.7   0.0   ---  0.00   0.0   ---   12.6   12.7   12.7   14.8  1030.8  0.00   0.0   134     5.76    149     0.0  0.00   0.0   0.119   0.000   24.6    43    0.05   633    1     92.5   30 
28/09/22  8:30a   13.3   13.3   12.6    93   12.2   0.0   ---  0.00   0.0   ---   13.3   13.4   13.4   15.7  1031.3  0.00   0.0   160     6.88    192     0.2  0.04   0.5   0.105   0.000   24.9    43    0.00   648    1     94.7   30 
28/09/22  9:00a   14.1   14.1   13.3    88   12.2   0.0   ---  0.00   0.0   ---   14.1   14.1   14.1   17.0  1031.6  0.00   0.0   203     8.73    279     0.6  0.13   1.0   0.088   0.000   25.2    43    0.10   657    1     96.1   30 
28/09/22  9:30a   15.2   15.2   14.1    82   12.2   0.0   ---  0.00   0.0   ---   15.2   15.2   15.2   19.1  1031.8  0.00   0.0   296    12.73    490     1.4  0.30   2.2   0.065   0.000   25.5    43    0.00   571    1     83.5   30 
28/09/22 10:00a   14.2   15.2   14.2    85   11.7   0.0   ---  0.00   0.0   ---   14.2   14.2   14.2   15.6  1031.8  0.00   0.0   144     6.19    313     0.6  0.13   1.4   0.086   0.000   25.8    42    0.13   628    1     91.8   30 
28/09/22 10:30a   14.6   14.6   14.2    83   11.7   0.0   ---  0.00   0.0   ---   14.6   14.5   14.5   15.7  1031.7  0.00   0.0   140     6.02    304     0.7  0.15   2.0   0.079   0.000   26.0    42    0.00   617    1     90.2   30 
28/09/22 11:00a   15.7   15.7   14.6    76   11.4   0.0   ---  0.00   0.0   ---   15.7   15.5   15.5   18.2  1031.7  0.00   0.0   254    10.92    341     1.9  0.41   2.7   0.056   0.000   26.2    42    0.10   593    1     86.7   30 
28/09/22 11:30a   15.9   16.0   15.7    76   11.7   0.0   ---  0.00   0.0   ---   15.9   15.8   15.8   19.6  1031.7  0.00   0.0   353    15.18    550     2.7  0.58   3.9   0.050   0.000   26.4    41    0.00   581    1     84.9   30 
28/09/22 12:00p   16.2   16.5   15.9    75   11.8   0.0   ---  0.00   0.0   ---   16.2   16.1   16.1   19.9  1031.4  0.00   0.0   360    15.48    610     2.1  0.45   4.2   0.044   0.000   26.7    41    0.20   564    1     82.5   30 
28/09/22 12:30p   15.7   16.2   15.6    73   10.9   0.0   ---  0.00   0.0   ---   15.7   15.4   15.4   15.8  1031.5  0.00   0.0   104     4.47    148     0.7  0.15   1.0   0.054   0.000   26.9    41    0.00   539    1     78.8   30 
28/09/22  1:00p   15.8   15.9   15.8    74   11.2   0.0   ---  0.00   0.0   ---   15.8   15.6   15.6   16.7  1031.2  0.00   0.0   147     6.32    214     0.9  0.19   1.5   0.052   0.000   27.0    40    0.08   552    1     80.7   30 
28/09/22  1:30p   16.1   16.1   15.8    72   11.0   0.0   ---  0.00   0.0   ---   16.1   15.8   15.8   17.4  1031.3  0.00   0.0   179     7.70    251     1.1  0.24   1.9   0.047   0.000   27.1    40    0.00   562    1     82.2   30 
28/09/22  2:00p   16.0   16.3   15.9    73   11.2   0.0   ---  0.00   0.0   ---   16.0   15.8   15.8   17.9  1031.2  0.00   0.0   213     9.16    519     1.3  0.28   2.7   0.049   0.000   27.1    39    0.10   559    1     81.7   30 
28/09/22  2:30p   15.9   16.1   15.8    70   10.5   0.0   ---  0.00   0.0   ---   15.9   15.6   15.6   16.9  1031.4  0.00   0.0   145     6.24    309     0.6  0.13   1.3   0.050   0.000   27.1    39    0.00   573    1     83.8   30 
28/09/22  3:00p   15.5   16.0   15.5    72   10.5   0.0   ---  0.00   0.0   ---   15.5   15.2   15.2   17.1  1031.7  0.00   0.0   169     7.27    251     0.9  0.19   1.6   0.059   0.000   27.0    39    0.08   582    1     85.1   30 
28/09/22  3:30p   15.1   15.5   15.1    73   10.3   0.0   ---  0.00   0.0   ---   15.1   14.8   14.8   16.9  1032.0  0.00   0.0   177     7.61    323     0.7  0.15   0.9   0.067   0.000   26.9    39    0.00   583    1     85.2   30 
28/09/22  4:00p   14.3   15.1   14.3    76   10.2   0.0   ---  0.00   0.0   ---   14.3   14.1   14.1   15.0  1032.5  0.00   0.0    93     4.00    149     0.1  0.02   1.1   0.083   0.000   26.7    39    0.08   589    1     86.1   30 
28/09/22  4:30p   14.1   14.3   14.1    77   10.1   0.0   ---  0.00   0.0   ---   14.1   13.8   13.8   14.9  1032.9  0.00   0.0    91     3.91    137     0.0  0.00   0.0   0.089   0.000   26.6    39    0.00   595    1     87.0   30 
28/09/22  5:00p   13.9   14.1   13.9    76    9.8   0.0   ---  0.00   0.0   ---   13.9   13.7   13.7   14.4  1033.2  0.00   0.0    76     3.27    114     0.0  0.00   0.0   0.091   0.000   26.4    39    0.05   587    1     85.8   30 
28/09/22  5:30p   13.8   14.0   13.8    76    9.6   0.0   ---  0.00   0.0   ---   13.8   13.5   13.5   12.3  1033.3  0.00   0.0    31     1.33     62     0.0  0.00   0.0   0.095   0.000   26.3    39    0.00   602    1     88.0   30 
28/09/22  6:00p   13.4   13.8   13.4    78    9.7   0.0   ---  0.00   0.0   ---   13.4   13.2   13.2   11.8  1033.7  0.00   0.0     8     0.34     14     0.0  0.00   0.0   0.102   0.000   26.1    39    0.03   611    1     89.3   30 
28/09/22  6:30p   13.2   13.4   13.2    78    9.5   0.0   ---  0.00   0.0   ---   13.2   13.0   13.0   11.4  1034.1  0.00   0.0     0     0.00      0     0.0  0.00   0.0   0.106   0.000   26.0    39    0.00   614    1     89.8   30 
28/09/22  7:00p   12.9   13.2   12.9    77    9.0   0.0   ---  0.00   0.0   ---   12.9   12.7   12.7   11.1  1034.6  0.00   0.0     0     0.00      0     0.0  0.00   0.0   0.113   0.000   25.9    39    0.00   576    1     84.2   30 
28/09/22  7:30p   12.7   12.9   12.7    77    8.8   0.0   ---  0.00   0.0   ---   12.7   12.5   12.5   10.9  1035.1  0.00   0.0     0     0.00      0     0.0  0.00   0.0   0.117   0.000   25.8    39    0.00   629    1     92.0   30 
28/09/22  8:00p   12.6   12.7   12.5    78    8.8   0.0   ---  0.00   0.0   ---   12.6   12.3   12.3   10.7  1035.5  0.00   0.0     0     0.00      0     0.0  0.00   0.0   0.120   0.000   25.6    39    0.03   619    1     90.5   30 
28/09/22  8:30p   12.3   12.6   12.3    79    8.7   0.0   ---  0.00   0.0   ---   12.3   12.1   12.1   10.5  1035.8  0.00   0.0     0     0.00      0     0.0  0.00   0.0   0.126   0.000   25.5    39    0.00   612    1     89.5   30 
28/09/22  9:00p   12.1   12.3   12.1    79    8.6   0.0   ---  0.00   0.0   ---   12.1   11.9   11.9   10.3  1036.0  0.00   0.0     0     0.00      0     0.0  0.00   0.0   0.130   0.000   25.4    39    0.03   609    1     89.0   30 
28/09/22  9:30p   11.9   12.1   11.9    81    8.8   0.0   ---  0.00   0.0   ---   11.9   11.8   11.8   10.2  1035.9  0.00   0.0     0     0.00      0     0.0  0.00   0.0   0.133   0.000   25.3    39    0.00   605    1     88.5   30 
28/09/22 10:00p   11.8   11.9   11.8    80    8.5   0.0   ---  0.00   0.0   ---   11.8   11.7   11.7   10.1  1036.0  0.00   0.0     0     0.00      0     0.0  0.00   0.0   0.135   0.000   25.2    39    0.03   613    1     89.6   30 
28/09/22 10:30p   11.8   11.9   11.8    79    8.3   0.0   ---  0.00   0.0   ---   11.8   11.7   11.7   10.1  1036.0  0.00   0.0     0     0.00      0     0.0  0.00   0.0   0.135   0.000   25.1    39    0.00   610    1     89.2   30 
28/09/22 11:00p   11.8   11.8   11.7    77    7.9   0.0   ---  0.00   0.0   ---   11.8   11.6   11.6    9.9  1036.0  0.00   0.0     0     0.00      0     0.0  0.00   0.0   0.137   0.000   25.0    39    0.03   611    1     89.3   30 
28/09/22 11:30p   11.7   11.8   11.7    79    8.1   0.0   ---  0.00   0.0   ---   11.7   11.5   11.5    9.9  1036.1  0.00   0.0     0     0.00      0     0.0  0.00   0.0   0.139   0.000   24.9    39    0.00   607    1     88.7   30 
29/09/22 12:00a   11.5   11.7   11.5    79    8.0   0.0   ---  0.00   0.0   ---   11.5   11.3   11.3    9.7  1036.2  0.00   0.0     0     0.00      0     0.0  0.00   0.0   0.142   0.000   24.8    39    0.03   607    1     88.7   30 
29/09/22 12:30a   11.4   11.5   11.4    78    7.7   0.0   ---  0.00   0.0   ---   11.4   11.2   11.2    9.6  1036.3  0.00   0.0     0     0.00      0     0.0  0.00   0.0   0.145   0.000   24.7    39    0.00   612    1     89.5   30 
29/09/22  1:00a   11.3   11.4   11.3    77    7.4   0.0   ---  0.00   0.0   ---   11.3   11.1   11.1    9.4  1036.4  0.00   0.0     0     0.00      0     0.0  0.00   0.0   0.147   0.000   24.6    39    0.03   636    1     93.0   30 
29/09/22  1:30a   11.2   11.3   11.1    77    7.3   0.0   ---  0.00   0.0   ---   11.2   11.0   11.0    9.3  1036.4  0.00   0.0     0     0.00      0     0.0  0.00   0.0   0.149   0.000   24.6    39    0.00   612    1     89.5   30 
29/09/22  2:00a   11.1   11.2   11.1    76    7.0   0.0   ---  0.00   0.0   ---   11.1   10.9   10.9    9.2  1036.6  0.00   0.0     0     0.00      0     0.0  0.00   0.0   0.152   0.000   24.5    39    0.03   583    1     85.2   30 
29/09/22  2:30a   11.0   11.1   11.0    77    7.1   0.0   ---  0.00   0.0   ---   11.0   10.8   10.8    9.2  1036.5  0.00   0.0     0     0.00      0     0.0  0.00   0.0   0.153   0.000   24.4    39    0.00   623    1     91.1   30 
29/09/22  3:00a   10.9   11.0   10.9    78    7.3   0.0   ---  0.00   0.0   ---   10.9   10.8   10.8    9.2  1036.5  0.00   0.0     0     0.00      0     0.0  0.00   0.0   0.154   0.000   24.4    39    0.03   636    1     93.0   30 
29/09/22  3:30a   10.9   10.9   10.9    78    7.3   0.0   ---  0.00   0.0   ---   10.9   10.8   10.8    9.2  1036.5  0.00   0.0     0     0.00      0     0.0  0.00   0.0   0.154   0.000   24.3    39    0.00   633    1     92.5   30 
29/09/22  4:00a   11.0   11.0   10.9    78    7.3   0.0   ---  0.00   0.0   ---   11.0   10.8   10.8    9.2  1036.7  0.00   0.0     0     0.00      0     0.0  0.00   0.0   0.153   0.000   24.3    39    0.03   620    1     90.6   30 
29/09/22  4:30a   11.0   11.0   11.0    78    7.3   0.0   ---  0.00   0.0   ---   11.0   10.8   10.8    9.2  1036.9  0.00   0.0     0     0.00      0     0.0  0.00   0.0   0.153   0.000   24.2    39    0.00   636    1     93.0   30 
29/09/22  5:00a   10.9   11.0   10.9    79    7.4   0.0   ---  0.00   0.0   ---   10.9   10.8   10.8    9.2  1037.1  0.00   0.0     0     0.00      0     0.0  0.00   0.0   0.154   0.000   24.1    39    0.03   640    1     93.6   30 
29/09/22  5:30a   10.9   10.9   10.9    78    7.3   0.0   ---  0.00   0.0   ---   10.9   10.8   10.8    9.2  1037.2  0.00   0.0     0     0.00      0     0.0  0.00   0.0   0.154   0.000   24.1    39    0.00   618    1     90.4   30 
29/09/22  6:00a   10.6   10.9   10.6    79    7.1   0.0   ---  0.00   0.0   ---   10.6   10.5   10.5    8.8  1037.5  0.00   0.0     1     0.04      5     0.0  0.00   0.0   0.161   0.000   24.0    39    0.00   621    1     90.8   30 
29/09/22  6:30a   10.5   10.6   10.4    81    7.4   0.0   ---  0.00   0.0   ---   10.5   10.4   10.4    9.0  1038.0  0.00   0.0    14     0.60     23     0.0  0.00   0.0   0.163   0.000   23.9    39    0.00   629    1     92.0   30 
29/09/22  7:00a   10.9   10.9   10.5    82    7.9   0.0   ---  0.00   0.0   ---   10.9   10.8   10.8    9.7  1038.3  0.00   0.0    41     1.76     63     0.0  0.00   0.0   0.155   0.000   23.9    39    0.03   640    1     93.6   30 
29/09/22  7:30a   11.8   11.8   10.9    78    8.1   0.0   ---  0.00   0.0   ---   11.8   11.6   11.6   12.4  1038.4  0.00   0.0    97     4.17    130     0.0  0.00   0.0   0.137   0.000   23.9    39    0.00   608    1     88.9   30 
29/09/22  8:00a   12.4   12.4   11.8    74    7.9   0.0   ---  0.00   0.0   ---   12.4   12.1   12.1   14.9  1038.4  0.00   0.0   191     8.21    274     0.2  0.04   0.5   0.124   0.000   24.1    39    0.08   637    1     93.1   30 
29/09/22  8:30a   12.7   12.7   12.3    74    8.1   0.0   ---  0.00   0.0   ---   12.7   12.3   12.3   15.0  1038.8  0.00   0.0   186     8.00    234     0.6  0.13   0.8   0.118   0.000   24.4    38    0.00   608    1     88.9   30 
29/09/22  9:00a   13.4   13.5   12.7    71    8.2   0.0   ---  0.00   0.0   ---   13.4   12.9   12.9   16.9  1038.7  0.00   0.0   286    12.30    594     1.1  0.24   1.7   0.103   0.000   24.7    38    0.13   589    1     86.1   30 
29/09/22  9:30a   14.2   14.2   13.2    70    8.8   0.0   ---  0.00   0.0   ---   14.2   13.7   13.7   18.5  1038.4  0.00   0.0   380    16.34    823     1.7  0.36   2.7   0.087   0.000   25.0    38    0.00   622    1     90.9   30 
29/09/22 10:00a   14.2   14.4   13.9    70    8.8   0.0   ---  0.00   0.0   ---   14.2   13.7   13.7   17.9  1038.5  0.00   0.0   356    15.31    677     1.9  0.41   2.7   0.087   0.000   25.4    37    0.20   615    1     89.9   30 
29/09/22 10:30a   15.0   15.0   14.2    69    9.4   0.0   ---  0.00   0.0   ---   15.0   14.6   14.6   18.5  1038.5  0.00   0.0   351    15.09    527     2.1  0.45   2.8   0.069   0.000   25.7    37    0.00   568    1     83.0   30 
29/09/22 11:00a   15.6   15.6   15.0    68    9.7   0.0   ---  0.00   0.0   ---   15.6   15.2   15.2   19.3  1038.3  0.00   0.0   381    16.39    455     2.4  0.51   2.7   0.058   0.000   26.0    37    0.20   610    1     89.2   30 
29/09/22 11:30a   15.3   15.7   15.3    69    9.6   0.0   ---  0.00   0.0   ---   15.3   14.9   14.9   17.6  1038.4  0.00   0.0   265    11.40    330     1.7  0.36   2.2   0.064   0.000   26.3    37    0.00   614    1     89.8   30 
29/09/22 12:00p   15.6   15.6   15.3    69    9.9   0.0   ---  0.00   0.0   ---   15.6   15.2   15.2   18.1  1038.2  0.00   0.0   280    12.04    336     2.0  0.43   2.3   0.057   0.000   26.5    36    0.15   629    1     92.0   30 
29/09/22 12:30p   16.2   16.2   15.4    68   10.3   0.0   ---  0.00   0.0   ---   16.2   15.8   15.8   20.7  1038.1  0.00   0.0   480    20.64    905     3.3  0.71   5.8   0.045   0.000   26.7    36    0.00   611    1     89.3   30 
29/09/22  1:00p   16.1   16.2   15.8    68   10.1   0.0   ---  0.00   0.0   ---   16.1   15.7   15.7   20.0  1038.0  0.00   0.0   415    17.85    563     2.7  0.58   3.5   0.047   0.000   26.9    36    0.25   585    1     85.5   30 
29/09/22  1:30p   15.8   16.1   15.8    70   10.4   0.0   ---  0.00   0.0   ---   15.8   15.5   15.5   18.4  1038.1  0.00   0.0   279    12.00    383     1.8  0.39   2.5   0.052   0.000   27.1    36    0.00   620    1     90.6   30 
29/09/22  2:00p   16.0   16.1   15.6    70   10.5   0.0   ---  0.00   0.0   ---   16.0   15.7   15.7   19.3  1037.9  0.00   0.0   328    14.11    436     1.9  0.41   2.6   0.049   0.000   27.2    36    0.15   603    1     88.2   30 
29/09/22  2:30p   16.3   16.6   16.1    69   10.6   0.0   ---  0.00   0.0   ---   16.3   16.0   16.0   20.5  1037.8  0.00   0.0   385    16.56    496     2.0  0.43   2.4   0.042   0.000   27.2    36    0.00   606    1     88.6   30 
29/09/22  3:00p   15.9   16.3   15.9    71   10.7   0.0   ---  0.00   0.0   ---   15.9   15.7   15.7   18.5  1037.8  0.00   0.0   232     9.98    269     1.1  0.24   1.2   0.050   0.000   27.2    36    0.18   613    1     89.6   30 
29/09/22  3:30p   16.2   16.2   15.9    70   10.7   0.0   ---  0.00   0.0   ---   16.2   15.9   15.9   20.0  1037.6  0.00   0.0   302    12.99    343     1.3  0.28   1.4   0.044   0.000   27.2    36    0.00   599    1     87.6   30 
29/09/22  4:00p   16.6   16.7   16.2    70   11.1   0.0   ---  0.00   0.0   ---   16.6   16.3   16.3   19.9  1037.5  0.00   0.0   236    10.15    315     0.9  0.19   1.3   0.036   0.000   27.1    36    0.15   599    1     87.6   30 
29/09/22  4:30p   16.9   16.9   16.6    70   11.4   0.0   ---  0.00   0.0   ---   16.9   16.7   16.7   20.3  1037.7  0.00   0.0   233    10.02    380     0.6  0.13   0.8   0.030   0.000   27.1    36    0.00   601    1     87.9   30 
29/09/22  5:00p   16.7   16.9   16.7    71   11.4   0.0   ---  0.00   0.0   ---   16.7   16.4   16.4   20.1  1037.9  0.00   0.0   223     9.59    345     0.2  0.04   0.6   0.035   0.000   27.0    36    0.13   612    1     89.5   30 
29/09/22  5:30p   16.0   16.8   16.0    74   11.4   0.0   ---  0.00   0.0   ---   16.0   15.8   15.8   15.4  1038.1  0.00   0.0   117     5.03    176     0.0  0.00   0.0   0.049   0.000   26.9    37    0.00   659    1     96.3   30 
29/09/22  6:00p   15.2   16.0   15.1    76   11.0   0.0   ---  0.00   0.0   ---   15.2   14.9   14.9   13.5  1038.2  0.00   0.0    26     1.12     44     0.0  0.00   0.0   0.066   0.000   26.8    37    0.05   679    1     99.3   30 
29/09/22  6:30p   14.4   15.1   14.4    78   10.7   0.0   ---  0.00   0.0   ---   14.4   14.3   14.3   12.6  1038.4  0.00   0.0     5     0.22     14     0.0  0.00   0.0   0.081   0.000   26.6    37    0.00   651    1     95.2   30 
29/09/22  7:00p   14.2   14.4   14.1    75    9.8   0.0   ---  0.00   0.0   ---   14.2   13.9   13.9   12.1  1038.6  0.00   0.0     0     0.00      0     0.0  0.00   0.0   0.087   0.000   26.4    37    0.00   654    1     95.6   30 
29/09/22  7:30p   13.9   14.2   13.9    74    9.3   0.0   ---  0.00   0.0   ---   13.9   13.6   13.6   11.7  1039.0  0.00   0.0     0     0.00      0     0.0  0.00   0.0   0.093   0.000   26.2    37    0.00   604    1     88.3   30 
29/09/22  8:00p   12.9   13.9   12.9    76    8.8   0.0   ---  0.00   0.0   ---   12.9   12.7   12.7   10.8  1039.4  0.00   0.0     0     0.00      0     0.0  0.00   0.0   0.112   0.000   26.0    38    0.03   639    1     93.4   30 
29/09/22  8:30p   12.1   12.9   12.1    79    8.5   0.0   ---  0.00   0.0   ---   12.1   11.9   11.9   10.1  1039.7  0.00   0.0     0     0.00      0     0.0  0.00   0.0   0.131   0.000   25.7    38    0.00   627    1     91.7   30 
29/09/22  9:00p   11.8   12.1   11.8    78    8.1   0.0   ---  0.00   0.0   ---   11.8   11.6   11.6    9.7  1039.8  0.00   0.0     0     0.00      0     0.0  0.00   0.0   0.135   0.000   25.6    38    0.03   629    1     92.0   30 
29/09/22  9:30p   11.3   11.8   11.3    79    7.8   0.0   ---  0.00   0.0   ---   11.3   11.1   11.1    9.2  1040.0  0.00   0.0     0     0.00      0     0.0  0.00   0.0   0.147   0.000   25.4    38    0.00   619    1     90.5   30 
29/09/22 10:00p   11.4   11.6   11.2    78    7.7   0.0   ---  0.00   0.0   ---   11.4   11.2   11.2    9.3  1040.0  0.00   0.0     0     0.00      0     0.0  0.00   0.0   0.145   0.000   25.2    38    0.03   655    1     95.8   30 
29/09/22 10:30p   10.2   11.3   10.2    83    7.4   0.0   ---  0.00   0.0   ---   10.2   10.2   10.2    8.3  1040.3  0.00   0.0     0     0.00      0     0.0  0.00   0.0   0.170   0.000   25.0    38    0.00   645    1     94.3   30 
29/09/22 11:00p    9.1   10.2    9.1    86    6.8   0.0   ---  0.00   0.0   ---    9.1    9.1    9.1    7.2  1040.0  0.00   0.0     0     0.00      0     0.0  0.00   0.0   0.193   0.000   24.8    38    0.00   632    1     92.4   30 
29/09/22 11:30p    8.6    9.1    8.6    88    6.7   0.0   ---  0.00   0.0   ---    8.6    8.7    8.7    6.7  1040.1  0.00   0.0     0     0.00      0     0.0  0.00   0.0   0.203   0.000   24.6    38    0.00   601    1     87.9   30 
30/09/22 12:00a    8.0    8.6    8.0    89    6.3   0.0   ---  0.00   0.0   ---    8.0    8.1    8.1    6.1  1039.9  0.00   0.0     0     0.00      0     0.0  0.00   0.0   0.215   0.000   24.4    38    0.00   648    1     94.7   30 
30/09/22 12:30a    8.1    8.1    7.9    91    6.7   0.0   ---  0.00   0.0   ---    8.1    8.2    8.2    6.2  1040.0  0.00   0.0     0     0.00      0     0.0  0.00   0.0   0.214   0.000   24.2    38    0.00   618    1     90.4   30 
30/09/22  1:00a    7.3    8.1    7.3    91    6.0   0.0   ---  0.00   0.0   ---    7.3    7.4    7.4    5.4  1039.9  0.00   0.0     0     0.00      0     0.0  0.00   0.0   0.229   0.000   24.0    38    0.00   663    1     96.9   30 
30/09/22  1:30a    6.8    7.3    6.8    92    5.6   0.0   ---  0.00   0.0   ---    6.8    6.9    6.9    4.9  1039.8  0.00   0.0     0     0.00      0     0.0  0.00   0.0   0.240   0.000   23.9    38    0.00   662    1     96.8   30 
30/09/22  2:00a    6.4    6.8    6.4    92    5.2   0.0   ---  0.00   0.0   ---    6.4    6.5    6.5    4.5  1039.9  0.00   0.0     0     0.00      0     0.0  0.00   0.0   0.248   0.000   23.7    38    0.00   671    1     98.1   30 
30/09/22  2:30a    6.5    6.6    6.3    93    5.4   0.0   ---  0.00   0.0   ---    6.5    6.6    6.6    4.6  1039.8  0.00   0.0     0     0.00      0     0.0  0.00   0.0   0.247   0.000   23.5    38    0.00   672    1     98.2   30 
30/09/22  3:00a    6.2    6.6    6.2    93    5.2   0.0   ---  0.00   0.0   ---    6.2    6.3    6.3    4.3  1039.7  0.00   0.0     0     0.00      0     0.0  0.00   0.0   0.252   0.000   23.4    38    0.00   654    1     95.6   30 
30/09/22  3:30a    6.2    6.2    6.1    94    5.3   0.0   ---  0.00   0.0   ---    6.2    6.3    6.3    4.3  1039.6  0.00   0.0     0     0.00      0     0.0  0.00   0.0   0.252   0.000   23.2    38    0.00   639    1     93.4   30 
30/09/22  4:00a    6.1    6.2    6.1    94    5.2   0.0   ---  0.00   0.0   ---    6.1    6.1    6.1    4.1  1039.8  0.00   0.0     0     0.00      0     0.0  0.00   0.0   0.256   0.000   23.1    38    0.00   665    1     97.2   30 
30/09/22  4:30a    5.8    6.1    5.8    94    4.9   0.0   ---  0.00   0.0   ---    5.8    5.9    5.9    3.9  1040.0  0.00   0.0     0     0.00      0     0.0  0.00   0.0   0.260   0.000   22.9    38    0.00   658    1     96.2   30 
30/09/22  5:00a    5.5    5.8    5.5    94    4.6   0.0   ---  0.00   0.0   ---    5.5    5.6    5.6    3.6  1040.1  0.00   0.0     0     0.00      0     0.0  0.00   0.0   0.267   0.000   22.8    38    0.00   665    1     97.2   30 
30/09/22  5:30a    5.3    5.5    5.3    94    4.4   0.0   ---  0.00   0.0   ---    5.3    5.3    5.3    3.3  1040.6  0.00   0.0     0     0.00      0     0.0  0.00   0.0   0.272   0.000   22.8    38    0.00   664    1     97.1   30 
30/09/22  6:00a    5.2    5.3    5.2    95    4.5   0.0   ---  0.00   0.0   ---    5.2    5.3    5.3    3.3  1040.8  0.00   0.0     2     0.09      9     0.0  0.00   0.0   0.273   0.000   22.7    38    0.00   669    1     97.8   30 
30/09/22  6:30a    5.4    5.4    5.2    95    4.7   0.0   ---  0.00   0.0   ---    5.4    5.5    5.5    3.8  1041.1  0.00   0.0    28     1.20     62     0.0  0.00   0.0   0.269   0.000   22.4    38    0.00   675    1     98.7   30 
30/09/22  7:00a    6.3    6.3    5.4    95    5.6   0.0   ---  0.00   0.0   ---    6.3    6.4    6.4    5.6  1041.5  0.00   0.0   103     4.43    148     0.0  0.00   0.0   0.250   0.000   22.4    38    0.03   679    1     99.3   30 
30/09/22  7:30a    7.7    7.7    6.3    96    7.1   0.0   ---  0.00   0.0   ---    7.7    7.8    7.8   11.0  1041.8  0.00   0.0   197     8.47    248     0.0  0.00   0.0   0.222   0.000   22.4    38    0.00   602    1     88.0   30 
30/09/22  8:00a    9.8    9.8    7.7    95    9.0   0.0   ---  0.00   0.0   ---    9.8   10.1   10.1   14.9  1042.1  0.00   0.0   298    12.82    366     0.3  0.06   0.7   0.178   0.000   22.7    38    0.10   621    1     90.8   30 
30/09/22  8:30a   12.6   12.6    9.8    88   10.6   0.0   ---  0.00   0.0   ---   12.6   12.6   12.6   18.7  1042.1  0.00   0.0   409    17.59    478     1.0  0.21   1.3   0.120   0.000   23.1    38    0.00   576    1     84.2   30 
30/09/22  9:00a   14.4   14.4   12.6    77   10.5   0.0   ---  0.00   0.0   ---   14.4   14.2   14.2   20.6  1042.1  0.00   0.0   493    21.20    559     1.6  0.34   1.8   0.081   0.000   23.5    37    0.20   622    1     90.9   30 
30/09/22  9:30a   15.3   15.3   14.4    75   10.9   0.0   ---  0.00   0.0   ---   15.3   15.0   15.0   21.1  1042.1  0.00   0.0   544    23.40    649     2.1  0.45   2.4   0.064   0.000   24.1    37    0.00   622    1     90.9   30